Observation data for Fort Lewis CO on 02/23/2019      Previous  Date  Next       Current Mesonet Observations  Soil Data  Daily Summary Page  Observations in Plain Language
KFL1 230600Z 25005KT M06/M06 A297 RMK A01 T10551060  RH  096%=      5-min Rain = 0
KFL1 230601Z 26005KT M06/M06 A297 RMK A01 T10551060  RH  096%=      5-min Rain = 0
KFL1 230602Z 26006KT M06/M06 A297 RMK A01 T10551060  RH  096%=      5-min Rain = 0
KFL1 230603Z 25006KT M06/M06 A297 RMK A01 T10561061  RH  096%=      5-min Rain = 0
KFL1 230604Z 26006KT M06/M06 A297 RMK A01 T10551060  RH  096%=      5-min Rain = 0
KFL1 230605Z 25006KT M06/M06 A297 RMK A01 T10551060  RH  096%=      5-min Rain = 0
KFL1 230606Z 25006KT M06/M06 A297 RMK A01 T10551060  RH  096%=      5-min Rain = 0
KFL1 230607Z 25006KT M05/M06 A297 RMK A01 T10541059  RH  096%=      5-min Rain = 0
KFL1 230608Z 25006KT M06/M06 A297 RMK A01 T10551060  RH  096%=      5-min Rain = 0
KFL1 230609Z 25006KT M06/M06 A297 RMK A01 T10561061  RH  096%=      5-min Rain = 0
KFL1 230610Z 24005KT M06/M06 A297 RMK A01 T10551060  RH  096%=      5-min Rain = 0
KFL1 230611Z 24005KT M06/M06 A297 RMK A01 T10551060  RH  096%=      5-min Rain = 0
KFL1 230612Z 24006KT M06/M06 A297 RMK A01 T10551060  RH  096%=      5-min Rain = 0
KFL1 230613Z 24005KT M06/M06 A297 RMK A01 T10551059  RH  096%=      5-min Rain = 0
KFL1 230614Z 25006KT M05/M06 A297 RMK A01 T10541059  RH  096%=      5-min Rain = 0
KFL1 230615Z 25006KT M06/M06 A297 RMK A01 T10551059  RH  096%=      5-min Rain = 0
KFL1 230616Z 25005KT M06/M06 A297 RMK A01 T10551060  RH  096%=      5-min Rain = 0
KFL1 230617Z 25006KT M05/M06 A297 RMK A01 T10541059  RH  097%=      5-min Rain = 0
KFL1 230618Z 25006KT M06/M06 A297 RMK A01 T10561060  RH  096%=      5-min Rain = 0
KFL1 230619Z 25007KT M06/M06 A297 RMK A01 T10561060  RH  096%=      5-min Rain = 0
KFL1 230620Z 25006KT M06/M06 A297 RMK A01 T10561061  RH  096%=      5-min Rain = 0
KFL1 230621Z 25006KT M06/M06 A297 RMK A01 T10551059  RH  096%=      5-min Rain = 0
KFL1 230622Z 25006KT M05/M06 A297 RMK A01 T10541059  RH  097%=      5-min Rain = 0
KFL1 230623Z 25006KT M06/M06 A297 RMK A01 T10551059  RH  096%=      5-min Rain = 0
KFL1 230624Z 25007KT M06/M06 A297 RMK A01 T10551060  RH  096%=      5-min Rain = 0
KFL1 230625Z 25007KT M06/M06 A297 RMK A01 T10561060  RH  096%=      5-min Rain = 0
KFL1 230626Z 25007KT M06/M06 A297 RMK A01 T10551060  RH  097%=      5-min Rain = 0
KFL1 230627Z 25007KT M05/M06 A297 RMK A01 T10531058  RH  097%=      5-min Rain = 0
KFL1 230628Z 25007KT M06/M06 A297 RMK A01 T10551060  RH  097%=      5-min Rain = 0
KFL1 230629Z 25008KT M06/M06 A297 RMK A01 T10561060  RH  096%=      5-min Rain = 0
KFL1 230630Z 25008KT M06/M06 A297 RMK A01 T10551060  RH  096%=      5-min Rain = 0
KFL1 230631Z 25008KT M06/M06 A2971 RMK A01 T10551060  RH  096%=      5-min Rain = 0
KFL1 230632Z 25008KT M06/M06 A2971 RMK A01 T10551060  RH  096%=      5-min Rain = 0
KFL1 230633Z 24007KT M06/M06 A2971 RMK A01 T10551060  RH  096%=      5-min Rain = 0
KFL1 230634Z 25008KT M06/M06 A2971 RMK A01 T10551060  RH  097%=      5-min Rain = 0
KFL1 230635Z 25008KT M05/M06 A2971 RMK A01 T10541059  RH  097%=      5-min Rain = 0
KFL1 230636Z 25008KT M05/M06 A2971 RMK A01 T10531058  RH  097%=      5-min Rain = 0
KFL1 230637Z 25010KT M05/M06 A2971 RMK A01 T10541059  RH  097%=      5-min Rain = 0
KFL1 230638Z 25008KT M06/M06 A2971 RMK A01 T10551060  RH  097%=      5-min Rain = 0
KFL1 230639Z 25007KT M06/M06 A297 RMK A01 T10561060  RH  096%=      5-min Rain = 0
KFL1 230640Z 25009KT M05/M06 A297 RMK A01 T10541059  RH  096%=      5-min Rain = 0
KFL1 230641Z 25008KT M06/M06 A297 RMK A01 T10551059  RH  096%=      5-min Rain = 0
KFL1 230642Z 26008KT M06/M06 A297 RMK A01 T10551060  RH  096%=      5-min Rain = 0
KFL1 230643Z 26009KT M06/M06 A297 RMK A01 T10561061  RH  096%=      5-min Rain = 0
KFL1 230644Z 26008KT M06/M06 A297 RMK A01 T10551060  RH  096%=      5-min Rain = 0
KFL1 230645Z 26008KT M06/M06 A297 RMK A01 T10551060  RH  096%=      5-min Rain = 0
KFL1 230646Z 26007KT M06/M06 A297 RMK A01 T10561061  RH  096%=      5-min Rain = 0
KFL1 230647Z 26007KT M06/M06 A297 RMK A01 T10571062  RH  096%=      5-min Rain = 0
KFL1 230648Z 26008KT M06/M06 A297 RMK A01 T10581063  RH  096%=      5-min Rain = 0
KFL1 230649Z 26008KT M06/M06 A297 RMK A01 T10561061  RH  096%=      5-min Rain = 0
KFL1 230650Z 26008KT M06/M06 A297 RMK A01 T10571063  RH  096%=      5-min Rain = 0
KFL1 230651Z 26008KT M06/M06 A297 RMK A01 T10571062  RH  096%=      5-min Rain = 0
KFL1 230652Z 26008KT M06/M06 A297 RMK A01 T10581064  RH  096%=      5-min Rain = 0
KFL1 230653Z 26007KT M06/M06 A297 RMK A01 T10561061  RH  096%=      5-min Rain = 0
KFL1 230654Z 26008KT M06/M06 A297 RMK A01 T10571063  RH  096%=      5-min Rain = 0
KFL1 230655Z 26008KT M06/M06 A297 RMK A01 T10581064  RH  096%=      5-min Rain = 0
KFL1 230656Z 26008KT M06/M06 A297 RMK A01 T10591064  RH  096%=      5-min Rain = 0
KFL1 230657Z 27007KT M06/M07 A297 RMK A01 T10591065  RH  096%=      5-min Rain = 0
KFL1 230658Z 26008KT M06/M06 A297 RMK A01 T10571063  RH  096%=      5-min Rain = 0
KFL1 230659Z 27007KT M06/M07 A297 RMK A01 T10591065  RH  096%=      5-min Rain = 0
KFL1 230700Z 26007KT M06/M07 A297 RMK A01 T10591065  RH  096%=      5-min Rain = 0
KFL1 230701Z 27007KT M06/M07 A297 RMK A01 T10591065  RH  096%=      5-min Rain = 0
KFL1 230702Z 27008KT M06/M07 A297 RMK A01 T10601065  RH  096%=      5-min Rain = 0
KFL1 230703Z 27008KT M06/M06 A297 RMK A01 T10591064  RH  096%=      5-min Rain = 0
KFL1 230704Z 27009KT M06/M07 A297 RMK A01 T10591065  RH  096%=      5-min Rain = 0
KFL1 230705Z 27008KT M06/M07 A297 RMK A01 T10601066  RH  096%=      5-min Rain = 0
KFL1 230706Z 27008KT M06/M07 A297 RMK A01 T10601066  RH  096%=      5-min Rain = 0
KFL1 230707Z 27009KT M06/M07 A297 RMK A01 T10591065  RH  096%=      5-min Rain = 0
KFL1 230708Z 27008KT M06/M07 A297 RMK A01 T10611067  RH  096%=      5-min Rain = 0
KFL1 230709Z 27008KT M06/M07 A297 RMK A01 T10601066  RH  096%=      5-min Rain = 0
KFL1 230710Z 27010KT M06/M07 A297 RMK A01 T10601066  RH  096%=      5-min Rain = 0
KFL1 230711Z 27009KT M06/M07 A297 RMK A01 T10601066  RH  096%=      5-min Rain = 0
KFL1 230712Z 27008KT M06/M07 A297 RMK A01 T10611067  RH  096%=      5-min Rain = 0
KFL1 230713Z 28008KT M06/M07 A297 RMK A01 T10611067  RH  096%=      5-min Rain = 0
KFL1 230714Z 27009KT M06/M07 A297 RMK A01 T10611067  RH  096%=      5-min Rain = 0
KFL1 230715Z 28009KT M06/M07 A297 RMK A01 T10601066  RH  096%=      5-min Rain = 0
KFL1 230716Z 27008KT M06/M07 A297 RMK A01 T10611067  RH  096%=      5-min Rain = 0
KFL1 230717Z 28011KT M06/M07 A297 RMK A01 T10621068  RH  096%=      5-min Rain = 0
KFL1 230718Z 29010KT M06/M07 A297 RMK A01 T10611067  RH  096%=      5-min Rain = 0
KFL1 230719Z 29009KT M06/M07 A297 RMK A01 T10611067  RH  096%=      5-min Rain = 0
KFL1 230720Z 29011KT M06/M07 A297 RMK A01 T10621068  RH  096%=      5-min Rain = 0
KFL1 230721Z 29010KT M06/M07 A297 RMK A01 T10611067  RH  096%=      5-min Rain = 0
KFL1 230722Z 29010KT M06/M07 A297 RMK A01 T10611067  RH  096%=      5-min Rain = 0
KFL1 230723Z 29013KT M06/M07 A297 RMK A01 T10631069  RH  096%=      5-min Rain = 0
KFL1 230724Z 29013KT M06/M07 A297 RMK A01 T10621068  RH  096%=      5-min Rain = 0
KFL1 230725Z 29013KT M06/M07 A297 RMK A01 T10621068  RH  096%=      5-min Rain = 0
KFL1 230726Z 29014KT M06/M07 A297 RMK A01 T10621068  RH  096%=      5-min Rain = 0
KFL1 230727Z 29014KT M06/M07 A297 RMK A01 T10621068  RH  096%=      5-min Rain = 0
KFL1 230728Z 29014KT M06/M07 A297 RMK A01 T10621068  RH  096%=      5-min Rain = 0
KFL1 230729Z 29014KT M06/M07 A297 RMK A01 T10621068  RH  096%=      5-min Rain = 0
KFL1 230730Z 29013KT M06/M07 A2969 RMK A01 T10631069  RH  096%=      5-min Rain = 0
KFL1 230731Z 29014KT M06/M07 A2969 RMK A01 T10621069  RH  096%=      5-min Rain = 0
KFL1 230732Z 29014KT M06/M07 A2969 RMK A01 T10641070  RH  095%=      5-min Rain = 0
KFL1 230733Z 30016KT M06/M07 A2969 RMK A01 T10631069  RH  096%=      5-min Rain = 0
KFL1 230734Z 30015KT M06/M07 A2969 RMK A01 T10621068  RH  096%=      5-min Rain = 0
KFL1 230735Z 29012KT M06/M07 A2969 RMK A01 T10631069  RH  096%=      5-min Rain = 0
KFL1 230736Z 30016KT M06/M07 A2969 RMK A01 T10631069  RH  095%=      5-min Rain = 0
KFL1 230737Z 30016KT M06/M07 A2969 RMK A01 T10631069  RH  096%=      5-min Rain = 0
KFL1 230738Z 30015KT M06/M07 A2969 RMK A01 T10621068  RH  096%=      5-min Rain = 0
KFL1 230739Z 30013KT M06/M07 A2969 RMK A01 T10621068  RH  096%=      5-min Rain = 0
KFL1 230740Z 30013KT M06/M07 A2969 RMK A01 T10631070  RH  095%=      5-min Rain = 0
KFL1 230741Z 30013KT M06/M07 A2969 RMK A01 T10631070  RH  095%=      5-min Rain = 0
KFL1 230742Z 30013KT M06/M07 A2969 RMK A01 T10631069  RH  095%=      5-min Rain = 0
KFL1 230743Z 30015G20KT M06/M07 A2969 RMK A01 T10641070  RH  095%=      5-min Rain = 0
KFL1 230744Z 30016KT M06/M07 A2969 RMK A01 T10631069  RH  095%=      5-min Rain = 0
KFL1 230745Z 30014KT M06/M07 A2969 RMK A01 T10621069  RH  095%=      5-min Rain = 0
KFL1 230746Z 30012KT M06/M07 A2969 RMK A01 T10641071  RH  095%=      5-min Rain = 0
KFL1 230747Z 30012KT M06/M07 A2969 RMK A01 T10641071  RH  095%=      5-min Rain = 0
KFL1 230748Z 30015KT M06/M07 A2969 RMK A01 T10641071  RH  095%=      5-min Rain = 0
KFL1 230749Z 30013KT M06/M07 A2969 RMK A01 T10631070  RH  095%=      5-min Rain = 0
KFL1 230750Z 30012KT M07/M07 A2969 RMK A01 T10651072  RH  095%=      5-min Rain = 0
KFL1 230751Z 30013KT M06/M07 A2969 RMK A01 T10641071  RH  095%=      5-min Rain = 0
KFL1 230752Z 30011KT M06/M07 A2969 RMK A01 T10641070  RH  095%=      5-min Rain = 0
KFL1 230753Z 30012KT M07/M07 A2969 RMK A01 T10651071  RH  095%=      5-min Rain = 0
KFL1 230754Z 30013KT M07/M07 A2969 RMK A01 T10651071  RH  095%=      5-min Rain = 0
KFL1 230755Z 30014KT M07/M07 A2969 RMK A01 T10651072  RH  095%=      5-min Rain = 0
KFL1 230756Z 30013KT M07/M07 A2969 RMK A01 T10661073  RH  095%=      5-min Rain = 0
KFL1 230757Z 31011KT M07/M07 A2969 RMK A01 T10651072  RH  095%=      5-min Rain = 0
KFL1 230758Z 30013KT M07/M07 A2969 RMK A01 T10651072  RH  095%=      5-min Rain = 0
KFL1 230759Z 30011KT M07/M07 A2969 RMK A01 T10651072  RH  095%=      5-min Rain = 0
KFL1 230800Z 30010KT M07/M07 A2969 RMK A01 T10661073  RH  095%=      5-min Rain = 0
KFL1 230801Z 30012KT M07/M07 A2969 RMK A01 T10661073  RH  095%=      5-min Rain = 0
KFL1 230802Z 30013KT M07/M07 A2969 RMK A01 T10671074  RH  095%=      5-min Rain = 0
KFL1 230803Z 30013KT M07/M08 A2969 RMK A01 T10671075  RH  095%=      5-min Rain = 0
KFL1 230804Z 30014G19KT M07/M08 A2969 RMK A01 T10681075  RH  095%=      5-min Rain = 0
KFL1 230805Z 30015KT M07/M07 A2969 RMK A01 T10661073  RH  095%=      5-min Rain = 0
KFL1 230806Z 30012KT M07/M08 A2969 RMK A01 T10681075  RH  095%=      5-min Rain = 0
KFL1 230807Z 31015KT M07/M08 A2969 RMK A01 T10681076  RH  095%=      5-min Rain = 0
KFL1 230808Z 30014KT M07/M08 A2969 RMK A01 T10681075  RH  095%=      5-min Rain = 0
KFL1 230809Z 30012KT M07/M08 A2969 RMK A01 T10681075  RH  095%=      5-min Rain = 0
KFL1 230810Z 30013KT M07/M08 A2969 RMK A01 T10691076  RH  095%=      5-min Rain = 0
KFL1 230811Z 30011KT M07/M08 A2969 RMK A01 T10681075  RH  095%=      5-min Rain = 0
KFL1 230812Z 30014KT M07/M08 A2969 RMK A01 T10691076  RH  095%=      5-min Rain = 0
KFL1 230813Z 30013KT M07/M08 A2969 RMK A01 T10691076  RH  094%=      5-min Rain = 0
KFL1 230814Z 30014KT M07/M08 A2969 RMK A01 T10681076  RH  094%=      5-min Rain = 0
KFL1 230815Z 30012KT M07/M08 A2969 RMK A01 T10701077  RH  094%=      5-min Rain = 0
KFL1 230816Z 30012KT M07/M08 A2969 RMK A01 T10701077  RH  094%=      5-min Rain = 0
KFL1 230817Z 30012KT M07/M08 A2969 RMK A01 T10681076  RH  095%=      5-min Rain = 0
KFL1 230818Z 30011KT M07/M08 A2969 RMK A01 T10701077  RH  095%=      5-min Rain = 0
KFL1 230819Z 31010KT M07/M08 A2969 RMK A01 T10701077  RH  095%=      5-min Rain = 0
KFL1 230820Z 31010KT M07/M08 A2969 RMK A01 T10701077  RH  095%=      5-min Rain = 0
KFL1 230821Z 30012KT M07/M08 A2969 RMK A01 T10701077  RH  094%=      5-min Rain = 0
KFL1 230822Z 31010KT M07/M08 A2969 RMK A01 T10701077  RH  094%=      5-min Rain = 0
KFL1 230823Z 32008KT M07/M08 A2969 RMK A01 T10701077  RH  094%=      5-min Rain = 0
KFL1 230824Z 34007KT M07/M08 A2969 RMK A01 T10691077  RH  094%=      5-min Rain = 0
KFL1 230825Z 35006KT M07/M08 A2969 RMK A01 T10701078  RH  094%=      5-min Rain = 0
KFL1 230826Z 36005KT M07/M08 A2969 RMK A01 T10711079  RH  094%=      5-min Rain = 0
KFL1 230827Z 36006KT M07/M08 A2969 RMK A01 T10711079  RH  094%=      5-min Rain = 0
KFL1 230828Z 35006KT M07/M08 A2969 RMK A01 T10711079  RH  094%=      5-min Rain = 0
KFL1 230829Z 34007KT M07/M08 A2969 RMK A01 T10701078  RH  094%=      5-min Rain = 0
KFL1 230830Z 34006KT M07/M08 A2969 RMK A01 T10711080  RH  094%=      5-min Rain = 0
KFL1 230831Z 32007KT M07/M08 A2969 RMK A01 T10711079  RH  094%=      5-min Rain = 0
KFL1 230832Z 33009KT M07/M08 A2969 RMK A01 T10711078  RH  094%=      5-min Rain = 0
KFL1 230833Z 33008KT M07/M08 A2969 RMK A01 T10701078  RH  094%=      5-min Rain = 0
KFL1 230834Z 34008KT M07/M08 A2969 RMK A01 T10701077  RH  094%=      5-min Rain = 0
KFL1 230835Z 33010KT M07/M08 A2969 RMK A01 T10681076  RH  095%=      5-min Rain = 0
KFL1 230836Z 33008KT M07/M08 A2969 RMK A01 T10691076  RH  095%=      5-min Rain = 0
KFL1 230837Z 33009KT M07/M08 A2969 RMK A01 T10701077  RH  094%=      5-min Rain = 0
KFL1 230838Z 33008KT M07/M08 A297 RMK A01 T10681076  RH  094%=      5-min Rain = 0
KFL1 230839Z 33008KT M07/M08 A297 RMK A01 T10691077  RH  094%=      5-min Rain = 0
KFL1 230840Z 33008KT M07/M08 A297 RMK A01 T10701077  RH  094%=      5-min Rain = 0
KFL1 230841Z 33007KT M07/M08 A297 RMK A01 T10671075  RH  094%=      5-min Rain = 0
KFL1 230842Z 32008KT M07/M08 A297 RMK A01 T10691077  RH  094%=      5-min Rain = 0
KFL1 230843Z 33007KT M07/M08 A297 RMK A01 T10691077  RH  094%=      5-min Rain = 0
KFL1 230844Z 33006KT M07/M08 A297 RMK A01 T10681076  RH  094%=      5-min Rain = 0
KFL1 230845Z 34006KT M07/M08 A297 RMK A01 T10691077  RH  094%=      5-min Rain = 0
KFL1 230846Z 32006KT M07/M08 A297 RMK A01 T10701078  RH  094%=      5-min Rain = 0
KFL1 230847Z 32007KT M07/M08 A297 RMK A01 T10701078  RH  094%=      5-min Rain = 0
KFL1 230848Z 32006KT M07/M08 A297 RMK A01 T10701078  RH  094%=      5-min Rain = 0
KFL1 230849Z 33006KT M07/M08 A297 RMK A01 T10691077  RH  094%=      5-min Rain = 0
KFL1 230850Z 32006KT M07/M08 A297 RMK A01 T10691077  RH  094%=      5-min Rain = 0
KFL1 230851Z 31005G10KT M07/M08 A297 RMK A01 T10701078  RH  094%=      5-min Rain = 0
KFL1 230852Z 32007KT M07/M08 A297 RMK A01 T10691077  RH  094%=      5-min Rain = 0
KFL1 230853Z 32005KT M07/M08 A2971 RMK A01 T10681076  RH  094%=      5-min Rain = 0
KFL1 230854Z 32005KT M07/M08 A2971 RMK A01 T10701078  RH  094%=      5-min Rain = 0
KFL1 230855Z 31007KT M07/M08 A2971 RMK A01 T10701078  RH  094%=      5-min Rain = 0
KFL1 230856Z 31008KT M07/M08 A2971 RMK A01 T10691077  RH  094%=      5-min Rain = 0
KFL1 230857Z 31011KT M07/M08 A2971 RMK A01 T10701078  RH  094%=      5-min Rain = 0
KFL1 230858Z 31008KT M07/M08 A2971 RMK A01 T10691076  RH  094%=      5-min Rain = 0
KFL1 230859Z 31011KT M07/M08 A2971 RMK A01 T10691077  RH  094%=      5-min Rain = 0
KFL1 230900Z 31010G15KT M07/M08 A2971 RMK A01 T10681076  RH  094%=      5-min Rain = 0
KFL1 230901Z 31014KT M07/M08 A2971 RMK A01 T10681077  RH  094%=      5-min Rain = 0
KFL1 230902Z 31014KT M07/M08 A2971 RMK A01 T10691078  RH  094%=      5-min Rain = 0
KFL1 230903Z 31012KT M07/M08 A2971 RMK A01 T10691077  RH  094%=      5-min Rain = 0
KFL1 230904Z 32011G16KT M07/M08 A2971 RMK A01 T10681077  RH  094%=      5-min Rain = 0
KFL1 230905Z 31011KT M07/M08 A2971 RMK A01 T10671076  RH  093%=      5-min Rain = 0
KFL1 230906Z 31011KT M07/M08 A2971 RMK A01 T10691078  RH  093%=      5-min Rain = 0
KFL1 230907Z 32011KT M07/M08 A2971 RMK A01 T10691078  RH  093%=      5-min Rain = 0
KFL1 230908Z 32010KT M07/M08 A2971 RMK A01 T10681077  RH  093%=      5-min Rain = 0
KFL1 230909Z 31011KT M07/M08 A2971 RMK A01 T10681078  RH  093%=      5-min Rain = 0
KFL1 230910Z 31010KT M07/M08 A2971 RMK A01 T10691079  RH  093%=      5-min Rain = 0
KFL1 230911Z 31010KT M07/M08 A2971 RMK A01 T10701079  RH  093%=      5-min Rain = 0
KFL1 230912Z 31010KT M07/M08 A297 RMK A01 T10691079  RH  093%=      5-min Rain = 0
KFL1 230913Z 30011KT M07/M08 A2971 RMK A01 T10681078  RH  093%=      5-min Rain = 0
KFL1 230914Z 31011KT M07/M08 A2971 RMK A01 T10701080  RH  092%=      5-min Rain = 0
KFL1 230915Z 31009KT M07/M08 A2971 RMK A01 T10701080  RH  092%=      5-min Rain = 0
KFL1 230916Z 30010KT M07/M08 A2971 RMK A01 T10691079  RH  092%=      5-min Rain = 0
KFL1 230917Z 30012KT M07/M08 A2971 RMK A01 T10691080  RH  092%=      5-min Rain = 0
KFL1 230918Z 30011KT M07/M08 A2971 RMK A01 T10701081  RH  092%=      5-min Rain = 0
KFL1 230919Z 29010KT M07/M08 A2971 RMK A01 T10711081  RH  092%=      5-min Rain = 0
KFL1 230920Z 29011KT M07/M08 A2971 RMK A01 T10691080  RH  092%=      5-min Rain = 0
KFL1 230921Z 28009KT M07/M08 A2971 RMK A01 T10701082  RH  092%=      5-min Rain = 0
KFL1 230922Z 28009KT M07/M08 A2971 RMK A01 T10721083  RH  092%=      5-min Rain = 0
KFL1 230923Z 28009KT M07/M08 A2971 RMK A01 T10711082  RH  092%=      5-min Rain = 0
KFL1 230924Z 28009KT M07/M08 A2971 RMK A01 T10711081  RH  092%=      5-min Rain = 0
KFL1 230925Z 28009KT M07/M08 A2971 RMK A01 T10721083  RH  092%=      5-min Rain = 0
KFL1 230926Z 28009KT M07/M08 A2971 RMK A01 T10731084  RH  092%=      5-min Rain = 0
KFL1 230927Z 28009KT M07/M08 A2971 RMK A01 T10731084  RH  092%=      5-min Rain = 0
KFL1 230928Z 28011KT M07/M08 A2971 RMK A01 T10731084  RH  092%=      5-min Rain = 0
KFL1 230929Z 28011KT M07/M08 A2971 RMK A01 T10741084  RH  092%=      5-min Rain = 0
KFL1 230930Z 27011KT M08/M09 A2971 RMK A01 T10751086  RH  092%=      5-min Rain = 0
KFL1 230931Z 28013KT M08/M09 A2971 RMK A01 T10751085  RH  092%=      5-min Rain = 0
KFL1 230932Z 28014KT M08/M09 A2971 RMK A01 T10751086  RH  092%=      5-min Rain = 0
KFL1 230933Z 28014KT M08/M09 A2971 RMK A01 T10751086  RH  092%=      5-min Rain = 0
KFL1 230934Z 28013KT M08/M09 A2971 RMK A01 T10761087  RH  092%=      5-min Rain = 0
KFL1 230935Z 28014KT M08/M09 A2971 RMK A01 T10761086  RH  092%=      5-min Rain = 0
KFL1 230936Z 28014KT M08/M09 A2971 RMK A01 T10771088  RH  092%=      5-min Rain = 0
KFL1 230937Z 29016KT M08/M09 A2971 RMK A01 T10771088  RH  092%=      5-min Rain = 0
KFL1 230938Z 28015KT M08/M09 A2971 RMK A01 T10781088  RH  092%=      5-min Rain = 0
KFL1 230939Z 28017KT M08/M09 A2971 RMK A01 T10781089  RH  092%=      5-min Rain = 0
KFL1 230940Z 28014KT M08/M09 A2971 RMK A01 T10791090  RH  092%=      5-min Rain = 0
KFL1 230941Z 29017KT M08/M09 A2971 RMK A01 T10811092  RH  092%=      5-min Rain = 0
KFL1 230942Z 29014KT M08/M09 A2971 RMK A01 T10801091  RH  092%=      5-min Rain = 0
KFL1 230943Z 29014KT M08/M09 A2972 RMK A01 T10811092  RH  092%=      5-min Rain = 0
KFL1 230944Z 29015KT M08/M09 A2972 RMK A01 T10821093  RH  092%=      5-min Rain = 0
KFL1 230945Z 28013KT M08/M09 A2972 RMK A01 T10811092  RH  092%=      5-min Rain = 0
KFL1 230946Z 28012KT M08/M09 A2972 RMK A01 T10821092  RH  092%=      5-min Rain = 0
KFL1 230947Z 29015KT M08/M09 A2972 RMK A01 T10831093  RH  092%=      5-min Rain = 0
KFL1 230948Z 29014KT M08/M09 A2972 RMK A01 T10821092  RH  092%=      5-min Rain = 0
KFL1 230949Z 29016KT M08/M09 A2972 RMK A01 T10821093  RH  092%=      5-min Rain = 0
KFL1 230950Z 29016KT M08/M09 A2972 RMK A01 T10831094  RH  092%=      5-min Rain = 0
KFL1 230951Z 29012KT M08/M10 A2972 RMK A01 T10841095  RH  092%=      5-min Rain = 0
KFL1 230952Z 29011KT M08/M09 A2972 RMK A01 T10831094  RH  092%=      5-min Rain = 0
KFL1 230953Z 28012KT M09/M10 A2972 RMK A01 T10851096  RH  092%=      5-min Rain = 0
KFL1 230954Z 29013KT M09/M10 A2972 RMK A01 T10851095  RH  092%=      5-min Rain = 0
KFL1 230955Z 29012KT M08/M10 A2972 RMK A01 T10841095  RH  092%=      5-min Rain = 0
KFL1 230956Z 29010G15KT M09/M10 A2972 RMK A01 T10851096  RH  092%=      5-min Rain = 0
KFL1 230957Z 28011G16KT M09/M10 A2972 RMK A01 T10861096  RH  092%=      5-min Rain = 0
KFL1 230958Z 29011KT M09/M10 A2972 RMK A01 T10851095  RH  092%=      5-min Rain = 0
KFL1 230959Z 29011KT M09/M10 A2972 RMK A01 T10851095  RH  092%=      5-min Rain = 0
KFL1 231000Z 29009KT M09/M10 A2973 RMK A01 T10861096  RH  092%=      5-min Rain = 0
KFL1 231001Z 30012KT M09/M10 A2973 RMK A01 T10871097  RH  092%=      5-min Rain = 0
KFL1 231002Z 29012KT M09/M10 A2973 RMK A01 T10861096  RH  092%=      5-min Rain = 0
KFL1 231003Z 29012KT M09/M10 A2973 RMK A01 T10881099  RH  092%=      5-min Rain = 0
KFL1 231004Z 29010KT M09/M10 A2973 RMK A01 T10881099  RH  092%=      5-min Rain = 0
KFL1 231005Z 29009G17KT M09/M10 A2973 RMK A01 T10871098  RH  092%=      5-min Rain = 0
KFL1 231006Z 29010KT M09/M10 A2973 RMK A01 T10881099  RH  092%=      5-min Rain = 0
KFL1 231007Z 29010KT M09/M10 A2973 RMK A01 T10891100  RH  092%=      5-min Rain = 0
KFL1 231008Z 29011KT M09/M10 A2973 RMK A01 T10891100  RH  092%=      5-min Rain = 0
KFL1 231009Z 29012KT M09/M10 A2973 RMK A01 T10901102  RH  092%=      5-min Rain = 0
KFL1 231010Z 29013KT M09/M10 A2973 RMK A01 T10911102  RH  092%=      5-min Rain = 0
KFL1 231011Z 29015KT M09/M10 A2973 RMK A01 T10891100  RH  092%=      5-min Rain = 0
KFL1 231012Z 29014KT M09/M10 A2973 RMK A01 T10901100  RH  092%=      5-min Rain = 0
KFL1 231013Z 30013KT M09/M10 A2973 RMK A01 T10901100  RH  092%=      5-min Rain = 0
KFL1 231014Z 29013KT M09/M10 A2973 RMK A01 T10881098  RH  092%=      5-min Rain = 0
KFL1 231015Z 29013G18KT M09/M10 A2973 RMK A01 T10881099  RH  092%=      5-min Rain = 0
KFL1 231016Z 30013KT M09/M10 A2973 RMK A01 T10891100  RH  092%=      5-min Rain = 0
KFL1 231017Z 30012KT M09/M10 A2973 RMK A01 T10881099  RH  092%=      5-min Rain = 0
KFL1 231018Z 30011KT M09/M10 A2973 RMK A01 T10871098  RH  092%=      5-min Rain = 0
KFL1 231019Z 30013KT M09/M10 A2973 RMK A01 T10871099  RH  091%=      5-min Rain = 0
KFL1 231020Z 30012KT M09/M10 A2973 RMK A01 T10881100  RH  091%=      5-min Rain = 0
KFL1 231021Z 29012KT M09/M10 A2973 RMK A01 T10881100  RH  091%=      5-min Rain = 0
KFL1 231022Z 30012KT M09/M10 A2973 RMK A01 T10881101  RH  091%=      5-min Rain = 0
KFL1 231023Z 30009KT M09/M10 A2973 RMK A01 T10901102  RH  091%=      5-min Rain = 0
KFL1 231024Z 30010KT M09/M10 A2973 RMK A01 T10901103  RH  091%=      5-min Rain = 0
KFL1 231025Z 29010KT M09/M10 A2973 RMK A01 T10891102  RH  091%=      5-min Rain = 0
KFL1 231026Z 29010KT M09/M10 A2973 RMK A01 T10911104  RH  091%=      5-min Rain = 0
KFL1 231027Z 29009KT M09/M10 A2973 RMK A01 T10911103  RH  091%=      5-min Rain = 0
KFL1 231028Z 29010KT M09/M10 A2973 RMK A01 T10891101  RH  091%=      5-min Rain = 0
KFL1 231029Z 28012KT M09/M10 A2973 RMK A01 T10911103  RH  091%=      5-min Rain = 0
KFL1 231030Z 28010KT M09/M11 A2973 RMK A01 T10921105  RH  091%=      5-min Rain = 0
KFL1 231031Z 28009KT M09/M10 A2973 RMK A01 T10911103  RH  091%=      5-min Rain = 0
KFL1 231032Z 27010KT M09/M10 A2973 RMK A01 T10911103  RH  091%=      5-min Rain = 0
KFL1 231033Z 27009KT M09/M10 A2973 RMK A01 T10911103  RH  091%=      5-min Rain = 0
KFL1 231034Z 28010KT M09/M10 A2973 RMK A01 T10901103  RH  091%=      5-min Rain = 0
KFL1 231035Z 28009KT M09/M11 A2973 RMK A01 T10931105  RH  091%=      5-min Rain = 0
KFL1 231036Z 27008KT M09/M11 A2973 RMK A01 T10931105  RH  091%=      5-min Rain = 0
KFL1 231037Z 26005KT M09/M10 A2973 RMK A01 T10921104  RH  091%=      5-min Rain = 0
KFL1 231038Z 26005KT M09/M11 A2973 RMK A01 T10931105  RH  091%=      5-min Rain = 0
KFL1 231039Z 23004KT M09/M11 A2973 RMK A01 T10931105  RH  091%=      5-min Rain = 0
KFL1 231040Z 27005KT M09/M11 A2974 RMK A01 T10931105  RH  091%=      5-min Rain = 0
KFL1 231041Z 27008KT M09/M11 A2974 RMK A01 T10941106  RH  091%=      5-min Rain = 0
KFL1 231042Z 27008KT M09/M11 A2974 RMK A01 T10941106  RH  091%=      5-min Rain = 0
KFL1 231043Z 23003KT M09/M11 A2974 RMK A01 T10931105  RH  091%=      5-min Rain = 0
KFL1 231044Z 20005KT M09/M11 A2973 RMK A01 T10941106  RH  091%=      5-min Rain = 0
KFL1 231045Z 24006KT M10/M11 A2973 RMK A01 T10951107  RH  091%=      5-min Rain = 0
KFL1 231046Z 21006KT M10/M11 A2973 RMK A01 T10951107  RH  091%=      5-min Rain = 0
KFL1 231047Z 22005KT M10/M11 A2973 RMK A01 T10971109  RH  091%=      5-min Rain = 0
KFL1 231048Z 22007KT M10/M11 A2974 RMK A01 T10971110  RH  091%=      5-min Rain = 0
KFL1 231049Z 23006KT M10/M11 A2974 RMK A01 T10981111  RH  091%=      5-min Rain = 0
KFL1 231050Z 22005KT M10/M11 A2974 RMK A01 T11001113  RH  090%=      5-min Rain = 0
KFL1 231051Z 22005KT M10/M11 A2974 RMK A01 T10991112  RH  091%=      5-min Rain = 0
KFL1 231052Z 24006KT M10/M11 A2974 RMK A01 T11011114  RH  090%=      5-min Rain = 0
KFL1 231053Z 24005KT M10/M12 A2974 RMK A01 T11031116  RH  090%=      5-min Rain = 0
KFL1 231054Z 22004KT M10/M12 A2974 RMK A01 T11031116  RH  090%=      5-min Rain = 0
KFL1 231055Z 24004KT M10/M12 A2974 RMK A01 T11041117  RH  090%=      5-min Rain = 0
KFL1 231056Z 24005KT M11/M12 A2974 RMK A01 T11051119  RH  090%=      5-min Rain = 0
KFL1 231057Z 25004KT M10/M12 A2974 RMK A01 T11041118  RH  090%=      5-min Rain = 0
KFL1 231058Z 26002KT M11/M12 A2974 RMK A01 T11061119  RH  090%=      5-min Rain = 0
KFL1 231059Z 28003KT M11/M12 A2974 RMK A01 T11071120  RH  090%=      5-min Rain = 0
KFL1 231100Z 29003KT M11/M12 A2975 RMK A01 T11071121  RH  089%=      5-min Rain = 0
KFL1 231101Z 29004KT M11/M12 A2975 RMK A01 T11091124  RH  089%=      5-min Rain = 0
KFL1 231102Z 31005KT M11/M13 A2975 RMK A01 T11101125  RH  089%=      5-min Rain = 0
KFL1 231103Z 30006KT M11/M12 A2975 RMK A01 T11101124  RH  090%=      5-min Rain = 0
KFL1 231104Z 30009KT M11/M12 A2975 RMK A01 T11081120  RH  091%=      5-min Rain = 0
KFL1 231105Z 31013KT M10/M11 A2975 RMK A01 T11041114  RH  092%=      5-min Rain = 0
KFL1 231106Z 31011KT M10/M11 A2975 RMK A01 T11001110  RH  092%=      5-min Rain = 0
KFL1 231107Z 31012KT M10/M11 A2975 RMK A01 T11001110  RH  092%=      5-min Rain = 0
KFL1 231108Z 31010KT M10/M11 A2975 RMK A01 T10991110  RH  092%=      5-min Rain = 0
KFL1 231109Z 31014KT M10/M11 A2975 RMK A01 T10981109  RH  092%=      5-min Rain = 0
KFL1 231110Z 31015KT M10/M11 A2975 RMK A01 T10981110  RH  091%=      5-min Rain = 0
KFL1 231111Z 30016G22KT M10/M11 A2975 RMK A01 T10981111  RH  090%=      5-min Rain = 0
KFL1 231112Z 30015KT M10/M11 A2975 RMK A01 T10971110  RH  090%=      5-min Rain = 0
KFL1 231113Z 29014KT M10/M11 A2975 RMK A01 T10971111  RH  090%=      5-min Rain = 0
KFL1 231114Z 29013KT M10/M11 A2975 RMK A01 T10971111  RH  090%=      5-min Rain = 0
KFL1 231115Z 29015G20KT M10/M11 A2975 RMK A01 T10971111  RH  090%=      5-min Rain = 0
KFL1 231116Z 30016KT M10/M11 A2975 RMK A01 T10981111  RH  090%=      5-min Rain = 0
KFL1 231117Z 30014KT M10/M11 A2975 RMK A01 T10971110  RH  090%=      5-min Rain = 0
KFL1 231118Z 29015KT M10/M11 A2975 RMK A01 T10971111  RH  090%=      5-min Rain = 0
KFL1 231119Z 29014KT M10/M11 A2975 RMK A01 T10981112  RH  089%=      5-min Rain = 0
KFL1 231120Z 29014KT M10/M11 A2975 RMK A01 T10981112  RH  089%=      5-min Rain = 0
KFL1 231121Z 29016KT M10/M11 A2975 RMK A01 T10991113  RH  089%=      5-min Rain = 0
KFL1 231122Z 30016KT M10/M11 A2975 RMK A01 T10981113  RH  089%=      5-min Rain = 0
KFL1 231123Z 28014KT M10/M11 A2975 RMK A01 T10981113  RH  089%=      5-min Rain = 0
KFL1 231124Z 28012KT M10/M11 A2975 RMK A01 T10991113  RH  089%=      5-min Rain = 0
KFL1 231125Z 28011KT M10/M11 A2976 RMK A01 T11001114  RH  089%=      5-min Rain = 0
KFL1 231126Z 28010KT M10/M12 A2976 RMK A01 T11001115  RH  089%=      5-min Rain = 0
KFL1 231127Z 27011KT M10/M11 A2976 RMK A01 T10991113  RH  089%=      5-min Rain = 0
KFL1 231128Z 27010KT M10/M11 A2976 RMK A01 T11011114  RH  090%=      5-min Rain = 0
KFL1 231129Z 27013G18KT M10/M11 A2976 RMK A01 T10991112  RH  091%=      5-min Rain = 0
KFL1 231130Z 27013KT M10/M11 A2976 RMK A01 T10991112  RH  090%=      5-min Rain = 0
KFL1 231131Z 28013KT M10/M11 A2976 RMK A01 T11001113  RH  090%=      5-min Rain = 0
KFL1 231132Z 28012KT M10/M11 A2976 RMK A01 T10991112  RH  090%=      5-min Rain = 0
KFL1 231133Z 27011KT M10/M11 A2976 RMK A01 T10981111  RH  090%=      5-min Rain = 0
KFL1 231134Z 27011KT M10/M11 A2976 RMK A01 T10981112  RH  090%=      5-min Rain = 0
KFL1 231135Z 27010KT M10/M11 A2976 RMK A01 T10981111  RH  090%=      5-min Rain = 0
KFL1 231136Z 27010KT M10/M11 A2977 RMK A01 T11001113  RH  090%=      5-min Rain = 0
KFL1 231137Z 26013KT M10/M12 A2977 RMK A01 T11011115  RH  090%=      5-min Rain = 0
KFL1 231138Z 25013KT M10/M11 A2977 RMK A01 T10991113  RH  090%=      5-min Rain = 0
KFL1 231139Z 25014KT M10/M11 A2977 RMK A01 T10991111  RH  091%=      5-min Rain = 0
KFL1 231140Z 26014KT M10/M11 A2977 RMK A01 T10961108  RH  092%=      5-min Rain = 0
KFL1 231141Z 27011KT M10/M11 A2977 RMK A01 T10961108  RH  091%=      5-min Rain = 0
KFL1 231142Z 27010KT M10/M11 A2977 RMK A01 T10961109  RH  090%=      5-min Rain = 0
KFL1 231143Z 26011KT M10/M11 A2978 RMK A01 T10971110  RH  090%=      5-min Rain = 0
KFL1 231144Z 25012KT M10/M11 A2978 RMK A01 T10981112  RH  090%=      5-min Rain = 0
KFL1 231145Z 24012KT M10/M11 A2978 RMK A01 T10981111  RH  090%=      5-min Rain = 0
KFL1 231146Z 24015KT M10/M11 A2978 RMK A01 T10971110  RH  091%=      5-min Rain = 0
KFL1 231147Z 24012G17KT M10/M11 A2978 RMK A01 T10971109  RH  091%=      5-min Rain = 0
KFL1 231148Z 26013KT M10/M11 A2978 RMK A01 T10951108  RH  091%=      5-min Rain = 0
KFL1 231149Z 28007KT M10/M11 A2978 RMK A01 T10961109  RH  091%=      5-min Rain = 0
KFL1 231150Z 25008KT M10/M11 A2978 RMK A01 T10971111  RH  090%=      5-min Rain = 0
KFL1 231151Z 29013KT M10/M11 A2979 RMK A01 T10971111  RH  090%=      5-min Rain = 0
KFL1 231152Z 30010KT M10/M11 A2978 RMK A01 T10991114  RH  089%=      5-min Rain = 0
KFL1 231153Z 25010KT M10/M11 A2978 RMK A01 T11001114  RH  089%=      5-min Rain = 0
KFL1 231154Z 27010KT M10/M11 A2979 RMK A01 T10991114  RH  089%=      5-min Rain = 0
KFL1 231155Z 29011KT M10/M12 A2979 RMK A01 T11031118  RH  089%=      5-min Rain = 0
KFL1 231156Z 27010KT M10/M12 A2979 RMK A01 T11031119  RH  089%=      5-min Rain = 0
KFL1 231157Z 28011G16KT M10/M12 A2979 RMK A01 T11031117  RH  089%=      5-min Rain = 0
KFL1 231158Z 29013KT M10/M12 A2979 RMK A01 T11021116  RH  090%=      5-min Rain = 0
KFL1 231159Z 29010KT M10/M12 A2979 RMK A01 T11021115  RH  090%=      5-min Rain = 0
KFL1 231200Z 25011KT M10/M11 A2979 RMK A01 T11001113  RH  090%=      5-min Rain = 0
KFL1 231201Z 28015G20KT M10/M11 A2979 RMK A01 T10991112  RH  090%=      5-min Rain = 0
KFL1 231202Z 25005G15KT M10/M11 A2979 RMK A01 T11001113  RH  090%=      5-min Rain = 0
KFL1 231203Z 27008G13KT M10/M11 A2979 RMK A01 T10981111  RH  091%=      5-min Rain = 0
KFL1 231204Z 26010KT M10/M11 A2979 RMK A01 T10991112  RH  090%=      5-min Rain = 0
KFL1 231205Z 27012KT M10/M11 A2979 RMK A01 T11001114  RH  089%=      5-min Rain = 0
KFL1 231206Z 27014KT M10/M11 A298 RMK A01 T10991114  RH  089%=      5-min Rain = 0
KFL1 231207Z 27012KT M10/M11 A298 RMK A01 T10991114  RH  089%=      5-min Rain = 0
KFL1 231208Z 26010KT M10/M12 A298 RMK A01 T11001115  RH  089%=      5-min Rain = 0
KFL1 231209Z 29010G19KT M10/M11 A298 RMK A01 T10991113  RH  090%=      5-min Rain = 0
KFL1 231210Z 27014KT M10/M11 A298 RMK A01 T10981112  RH  090%=      5-min Rain = 0
KFL1 231211Z 27014KT M10/M11 A298 RMK A01 T10991114  RH  089%=      5-min Rain = 0
KFL1 231212Z 28014KT M10/M11 A298 RMK A01 T10981113  RH  089%=      5-min Rain = 0
KFL1 231213Z 26014G19KT M10/M11 A298 RMK A01 T10991114  RH  089%=      5-min Rain = 0
KFL1 231214Z 27011KT M10/M11 A298 RMK A01 T10991114  RH  089%=      5-min Rain = 0
KFL1 231215Z 29009KT M10/M11 A298 RMK A01 T10991114  RH  089%=      5-min Rain = 0
KFL1 231216Z 28011KT M10/M11 A2981 RMK A01 T10981113  RH  089%=      5-min Rain = 0
KFL1 231217Z 28011KT M10/M12 A2981 RMK A01 T11011117  RH  088%=      5-min Rain = 0
KFL1 231218Z 27008KT M10/M12 A2981 RMK A01 T11021118  RH  088%=      5-min Rain = 0
KFL1 231219Z 31006KT M10/M12 A2981 RMK A01 T10991115  RH  088%=      5-min Rain = 0
KFL1 231220Z 26008KT M10/M12 A2981 RMK A01 T11001116  RH  089%=      5-min Rain = 0
KFL1 231221Z 27013KT M10/M12 A2981 RMK A01 T11011116  RH  089%=      5-min Rain = 0
KFL1 231222Z 27014KT M10/M12 A2981 RMK A01 T11001116  RH  088%=      5-min Rain = 0
KFL1 231223Z 27011KT M10/M12 A2981 RMK A01 T11011117  RH  088%=      5-min Rain = 0
KFL1 231224Z 25008KT M10/M12 A2981 RMK A01 T11011118  RH  088%=      5-min Rain = 0
KFL1 231225Z 25009KT M10/M12 A2981 RMK A01 T11001116  RH  088%=      5-min Rain = 0
KFL1 231226Z 27010KT M10/M12 A2981 RMK A01 T11031119  RH  088%=      5-min Rain = 0
KFL1 231227Z 27010KT M10/M12 A2981 RMK A01 T11041121  RH  088%=      5-min Rain = 0
KFL1 231228Z 27009KT M10/M12 A2981 RMK A01 T11041122  RH  087%=      5-min Rain = 0
KFL1 231229Z 27011KT M10/M12 A2981 RMK A01 T11041121  RH  087%=      5-min Rain = 0
KFL1 231230Z 27009KT M11/M12 A2981 RMK A01 T11061123  RH  087%=      5-min Rain = 0
KFL1 231231Z 27008KT M11/M12 A2981 RMK A01 T11051121  RH  088%=      5-min Rain = 0
KFL1 231232Z 27010KT M11/M12 A2981 RMK A01 T11051121  RH  088%=      5-min Rain = 0
KFL1 231233Z 25013KT M11/M12 A2981 RMK A01 T11051121  RH  089%=      5-min Rain = 0
KFL1 231234Z 26012KT M10/M12 A2981 RMK A01 T11041120  RH  089%=      5-min Rain = 0
KFL1 231235Z 26012KT M10/M12 A2981 RMK A01 T11041120  RH  088%=      5-min Rain = 0
KFL1 231236Z 25010KT M11/M12 A2981 RMK A01 T11061122  RH  088%=      5-min Rain = 0
KFL1 231237Z 24014KT M11/M12 A2981 RMK A01 T11061122  RH  088%=      5-min Rain = 0
KFL1 231238Z 26012KT M11/M12 A2981 RMK A01 T11051120  RH  088%=      5-min Rain = 0
KFL1 231239Z 25008KT M11/M12 A2981 RMK A01 T11061121  RH  088%=      5-min Rain = 0
KFL1 231240Z 26007KT M11/M12 A2981 RMK A01 T11051121  RH  089%=      5-min Rain = 0
KFL1 231241Z 26010KT M10/M12 A2981 RMK A01 T11031118  RH  088%=      5-min Rain = 0
KFL1 231242Z 26011KT M10/M12 A2981 RMK A01 T11021118  RH  088%=      5-min Rain = 0
KFL1 231243Z 27012KT M11/M12 A2981 RMK A01 T11051123  RH  087%=      5-min Rain = 0
KFL1 231244Z 27013KT M11/M13 A2982 RMK A01 T11061125  RH  086%=      5-min Rain = 0
KFL1 231245Z 28014KT M11/M12 A2982 RMK A01 T11051124  RH  086%=      5-min Rain = 0
KFL1 231246Z 27013KT M11/M13 A2982 RMK A01 T11061125  RH  086%=      5-min Rain = 0
KFL1 231247Z 26012KT M11/M13 A2982 RMK A01 T11061125  RH  086%=      5-min Rain = 0
KFL1 231248Z 27012KT M10/M12 A2982 RMK A01 T11031120  RH  087%=      5-min Rain = 0
KFL1 231249Z 29012KT M10/M12 A2982 RMK A01 T11031121  RH  087%=      5-min Rain = 0
KFL1 231250Z 26008G14KT M10/M12 A2982 RMK A01 T11031122  RH  086%=      5-min Rain = 0
KFL1 231251Z 28010KT M10/M12 A2982 RMK A01 T11011120  RH  086%=      5-min Rain = 0
KFL1 231252Z 28012KT M10/M12 A2982 RMK A01 T11011120  RH  086%=      5-min Rain = 0
KFL1 231253Z 29010KT M10/M12 A2982 RMK A01 T11021122  RH  085%=      5-min Rain = 0
KFL1 231254Z 28009KT M10/M12 A2982 RMK A01 T11031123  RH  085%=      5-min Rain = 0
KFL1 231255Z 27009KT M10/M12 A2982 RMK A01 T11031123  RH  085%=      5-min Rain = 0
KFL1 231256Z 27010KT M11/M13 A2982 RMK A01 T11051126  RH  085%=      5-min Rain = 0
KFL1 231257Z 25009KT M11/M13 A2982 RMK A01 T11051125  RH  085%=      5-min Rain = 0
KFL1 231258Z 27008KT M10/M12 A2982 RMK A01 T11041122  RH  086%=      5-min Rain = 0
KFL1 231259Z 28007KT M11/M12 A2982 RMK A01 T11051124  RH  086%=      5-min Rain = 0
KFL1 231300Z 28008KT M11/M12 A2982 RMK A01 T11051124  RH  086%=      5-min Rain = 0
KFL1 231301Z 28009KT M10/M12 A2982 RMK A01 T11031123  RH  086%=      5-min Rain = 0
KFL1 231302Z 26011KT M11/M13 A2983 RMK A01 T11051125  RH  085%=      5-min Rain = 0
KFL1 231303Z 27010KT M10/M13 A2983 RMK A01 T11041125  RH  085%=      5-min Rain = 0
KFL1 231304Z 28009KT M10/M12 A2983 RMK A01 T11031123  RH  085%=      5-min Rain = 0
KFL1 231305Z 28009KT M11/M13 A2983 RMK A01 T11051127  RH  085%=      5-min Rain = 0
KFL1 231306Z 27009KT M11/M13 A2983 RMK A01 T11071128  RH  084%=      5-min Rain = 0
KFL1 231307Z 27010KT M11/M13 A2983 RMK A01 T11081129  RH  085%=      5-min Rain = 0
KFL1 231308Z 27010KT M11/M13 A2983 RMK A01 T11091129  RH  085%=      5-min Rain = 0
KFL1 231309Z 29010KT M11/M13 A2983 RMK A01 T11121132  RH  085%=      5-min Rain = 0
KFL1 231310Z 29012KT M11/M13 A2984 RMK A01 T11121133  RH  085%=      5-min Rain = 0
KFL1 231311Z 28013KT M11/M13 A2984 RMK A01 T11131133  RH  085%=      5-min Rain = 0
KFL1 231312Z 28012KT M11/M13 A2984 RMK A01 T11141134  RH  085%=      5-min Rain = 0
KFL1 231313Z 29011KT M11/M13 A2984 RMK A01 T11111130  RH  086%=      5-min Rain = 0
KFL1 231314Z 28010KT M11/M13 A2984 RMK A01 T11101128  RH  086%=      5-min Rain = 0
KFL1 231315Z 28010KT M11/M13 A2984 RMK A01 T11121131  RH  086%=      5-min Rain = 0
KFL1 231316Z 28010KT M11/M13 A2984 RMK A01 T11121131  RH  085%=      5-min Rain = 0
KFL1 231317Z 29010KT M11/M13 A2984 RMK A01 T11121132  RH  085%=      5-min Rain = 0
KFL1 231318Z 29010KT M11/M13 A2984 RMK A01 T11141134  RH  085%=      5-min Rain = 0
KFL1 231319Z 29010KT M11/M14 A2984 RMK A01 T11141135  RH  085%=      5-min Rain = 0
KFL1 231320Z 29010KT M11/M13 A2984 RMK A01 T11131132  RH  086%=      5-min Rain = 0
KFL1 231321Z 29010KT M11/M13 A2984 RMK A01 T11141133  RH  085%=      5-min Rain = 0
KFL1 231322Z 29009KT M12/M14 A2984 RMK A01 T11151135  RH  085%=      5-min Rain = 0
KFL1 231323Z 29010KT M12/M14 A2984 RMK A01 T11151136  RH  085%=      5-min Rain = 0
KFL1 231324Z 29009KT M12/M14 A2984 RMK A01 T11171138  RH  085%=      5-min Rain = 0
KFL1 231325Z 30009KT M12/M14 A2984 RMK A01 T11191138  RH  085%=      5-min Rain = 0
KFL1 231326Z 30007KT M12/M14 A2985 RMK A01 T11171137  RH  085%=      5-min Rain = 0
KFL1 231327Z 29008KT M12/M14 A2985 RMK A01 T11201140  RH  085%=      5-min Rain = 0
KFL1 231328Z 29008KT M12/M14 A2985 RMK A01 T11211141  RH  085%=      5-min Rain = 0
KFL1 231329Z 30008KT M12/M14 A2985 RMK A01 T11191138  RH  086%=      5-min Rain = 0
KFL1 231330Z 29011KT M12/M14 A2985 RMK A01 T11191137  RH  086%=      5-min Rain = 0
KFL1 231331Z 29011KT M12/M14 A2985 RMK A01 T11191137  RH  086%=      5-min Rain = 0
KFL1 231332Z 29010KT M12/M14 A2985 RMK A01 T11171135  RH  086%=      5-min Rain = 0
KFL1 231333Z 29011KT M12/M14 A2985 RMK A01 T11181137  RH  086%=      5-min Rain = 0
KFL1 231334Z 29012KT M12/M14 A2985 RMK A01 T11181137  RH  086%=      5-min Rain = 0
KFL1 231335Z 30015KT M12/M14 A2985 RMK A01 T11171136  RH  086%=      5-min Rain = 0
KFL1 231336Z 29014KT M12/M14 A2985 RMK A01 T11171137  RH  086%=      5-min Rain = 0
KFL1 231337Z 29013KT M12/M14 A2985 RMK A01 T11161135  RH  086%=      5-min Rain = 0
KFL1 231338Z 29011KT M12/M14 A2985 RMK A01 T11151135  RH  085%=      5-min Rain = 0
KFL1 231339Z 29011KT M12/M14 A2985 RMK A01 T11171138  RH  085%=      5-min Rain = 0
KFL1 231340Z 30013KT M12/M14 A2985 RMK A01 T11181138  RH  085%=      5-min Rain = 0
KFL1 231341Z 31011KT M12/M14 A2985 RMK A01 T11171137  RH  085%=      5-min Rain = 0
KFL1 231342Z 30011KT M12/M14 A2985 RMK A01 T11161135  RH  086%=      5-min Rain = 0
KFL1 231343Z 31015G20KT M12/M14 A2985 RMK A01 T11161135  RH  086%=      5-min Rain = 0
KFL1 231344Z 31015KT M12/M13 A2985 RMK A01 T11151134  RH  086%=      5-min Rain = 0
KFL1 231345Z 31015KT M11/M13 A2985 RMK A01 T11141133  RH  086%=      5-min Rain = 0
KFL1 231346Z 31017KT M11/M13 A2985 RMK A01 T11141134  RH  085%=      5-min Rain = 0
KFL1 231347Z 31014KT M11/M13 A2985 RMK A01 T11141134  RH  085%=      5-min Rain = 0
KFL1 231348Z 31015KT M11/M13 A2985 RMK A01 T11131134  RH  085%=      5-min Rain = 0
KFL1 231349Z 32016KT M11/M13 A2985 RMK A01 T11141134  RH  085%=      5-min Rain = 0
KFL1 231350Z 32014KT M11/M13 A2985 RMK A01 T11131133  RH  085%=      5-min Rain = 0
KFL1 231351Z 31017KT M11/M13 A2985 RMK A01 T11121133  RH  085%=      5-min Rain = 0
KFL1 231352Z 31016KT M11/M13 A2985 RMK A01 T11131134  RH  084%=      5-min Rain = 0
KFL1 231353Z 32015KT M11/M13 A2985 RMK A01 T11121134  RH  084%=      5-min Rain = 0
KFL1 231354Z 32018KT M11/M13 A2986 RMK A01 T11131134  RH  084%=      5-min Rain = 0
KFL1 231355Z 31016KT M11/M14 A2986 RMK A01 T11141136  RH  084%=      5-min Rain = 0
KFL1 231356Z 32016KT M11/M13 A2986 RMK A01 T11131134  RH  084%=      5-min Rain = 0
KFL1 231357Z 31016KT M11/M14 A2986 RMK A01 T11121135  RH  084%=      5-min Rain = 0
KFL1 231358Z 31017KT M12/M14 A2986 RMK A01 T11151138  RH  083%=      5-min Rain = 0
KFL1 231359Z 31018KT M11/M14 A2986 RMK A01 T11131135  RH  084%=      5-min Rain = 0
KFL1 231400Z 31018KT M11/M14 A2986 RMK A01 T11131135  RH  084%=      5-min Rain = 0
KFL1 231401Z 31017G22KT M11/M13 A2986 RMK A01 T11131134  RH  084%=      5-min Rain = 0
KFL1 231402Z 31018G25KT M11/M13 A2986 RMK A01 T11131134  RH  084%=      5-min Rain = 0
KFL1 231403Z 32021KT M11/M14 A2986 RMK A01 T11131135  RH  084%=      5-min Rain = 0
KFL1 231404Z 32022KT M11/M14 A2986 RMK A01 T11141136  RH  084%=      5-min Rain = 0
KFL1 231405Z 32019KT M11/M14 A2986 RMK A01 T11131136  RH  084%=      5-min Rain = 0
KFL1 231406Z 32017G22KT M11/M14 A2986 RMK A01 T11121135  RH  083%=      5-min Rain = 0
KFL1 231407Z 31018KT M11/M14 A2986 RMK A01 T11131136  RH  083%=      5-min Rain = 0
KFL1 231408Z 32017KT M11/M14 A2986 RMK A01 T11111135  RH  083%=      5-min Rain = 0
KFL1 231409Z 32020KT M11/M14 A2986 RMK A01 T11111135  RH  082%=      5-min Rain = 0
KFL1 231410Z 32017KT M11/M14 A2986 RMK A01 T11121137  RH  082%=      5-min Rain = 0
KFL1 231411Z 31018KT M11/M14 A2986 RMK A01 T11121136  RH  082%=      5-min Rain = 0
KFL1 231412Z 31018KT M11/M14 A2986 RMK A01 T11121137  RH  082%=      5-min Rain = 0
KFL1 231413Z 31019KT M11/M14 A2986 RMK A01 T11131138  RH  082%=      5-min Rain = 0
KFL1 231414Z 31018KT M11/M14 A2987 RMK A01 T11131138  RH  082%=      5-min Rain = 0
KFL1 231415Z 31021KT M11/M14 A2987 RMK A01 T11121137  RH  082%=      5-min Rain = 0
KFL1 231416Z 31018KT M11/M14 A2987 RMK A01 T11131138  RH  082%=      5-min Rain = 0
KFL1 231417Z 31017KT M11/M14 A2987 RMK A01 T11131138  RH  082%=      5-min Rain = 0
KFL1 231418Z 32017KT M11/M14 A2987 RMK A01 T11121138  RH  082%=      5-min Rain = 0
KFL1 231419Z 32019KT M11/M14 A2987 RMK A01 T11121137  RH  081%=      5-min Rain = 0
KFL1 231420Z 32018KT M11/M14 A2987 RMK A01 T11121138  RH  081%=      5-min Rain = 0
KFL1 231421Z 31018KT M11/M14 A2987 RMK A01 T11121138  RH  081%=      5-min Rain = 0
KFL1 231422Z 32018KT M11/M14 A2988 RMK A01 T11111138  RH  081%=      5-min Rain = 0
KFL1 231423Z 32017KT M11/M14 A2988 RMK A01 T11101137  RH  081%=      5-min Rain = 0
KFL1 231424Z 32018KT M11/M14 A2988 RMK A01 T11101138  RH  080%=      5-min Rain = 0
KFL1 231425Z 32016KT M11/M14 A2988 RMK A01 T11101138  RH  080%=      5-min Rain = 0
KFL1 231426Z 32017KT M11/M14 A2988 RMK A01 T11101138  RH  079%=      5-min Rain = 0
KFL1 231427Z 32018KT M11/M14 A2988 RMK A01 T11091138  RH  079%=      5-min Rain = 0
KFL1 231428Z 32018KT M11/M14 A2988 RMK A01 T11091138  RH  079%=      5-min Rain = 0
KFL1 231429Z 32016KT M11/M14 A2988 RMK A01 T11091139  RH  079%=      5-min Rain = 0
KFL1 231430Z 32018KT M11/M14 A2988 RMK A01 T11081137  RH  079%=      5-min Rain = 0
KFL1 231431Z 32015KT M11/M14 A2988 RMK A01 T11061136  RH  079%=      5-min Rain = 0
KFL1 231432Z 32016KT M11/M14 A2988 RMK A01 T11071138  RH  078%=      5-min Rain = 0
KFL1 231433Z 32014KT M11/M14 A2988 RMK A01 T11071138  RH  078%=      5-min Rain = 0
KFL1 231434Z 32015KT M11/M14 A2988 RMK A01 T11061137  RH  078%=      5-min Rain = 0
KFL1 231435Z 32017KT M10/M14 A2988 RMK A01 T11041136  RH  077%=      5-min Rain = 0
KFL1 231436Z 32015KT M11/M14 A2988 RMK A01 T11051138  RH  077%=      5-min Rain = 0
KFL1 231437Z 33014KT M11/M14 A2988 RMK A01 T11051139  RH  076%=      5-min Rain = 0
KFL1 231438Z 32012KT M11/M14 A2988 RMK A01 T11051139  RH  076%=      5-min Rain = 0
KFL1 231439Z 32013KT M10/M14 A2988 RMK A01 T11041138  RH  076%=      5-min Rain = 0
KFL1 231440Z 32013KT M11/M14 A2988 RMK A01 T11051139  RH  076%=      5-min Rain = 0
KFL1 231441Z 32014KT M11/M14 A2988 RMK A01 T11051139  RH  076%=      5-min Rain = 0
KFL1 231442Z 32013KT M11/M14 A2988 RMK A01 T11051139  RH  076%=      5-min Rain = 0
KFL1 231443Z 32011KT M10/M14 A2988 RMK A01 T11041139  RH  075%=      5-min Rain = 0
KFL1 231444Z 33012KT M10/M14 A2988 RMK A01 T11031139  RH  075%=      5-min Rain = 0
KFL1 231445Z 33011KT M11/M14 A2988 RMK A01 T11061142  RH  075%=      5-min Rain = 0
KFL1 231446Z 32011KT M11/M14 A2988 RMK A01 T11061143  RH  074%=      5-min Rain = 0
KFL1 231447Z 32011KT M11/M14 A2988 RMK A01 T11061142  RH  075%=      5-min Rain = 0
KFL1 231448Z 32011KT M11/M14 A2988 RMK A01 T11051141  RH  075%=      5-min Rain = 0
KFL1 231449Z 31012KT M10/M14 A2988 RMK A01 T11041140  RH  075%=      5-min Rain = 0
KFL1 231450Z 32012KT M10/M14 A2989 RMK A01 T11031139  RH  075%=      5-min Rain = 0
KFL1 231451Z 31013KT M10/M14 A2989 RMK A01 T11011138  RH  074%=      5-min Rain = 0
KFL1 231452Z 31014KT M10/M14 A2989 RMK A01 T11001138  RH  074%=      5-min Rain = 0
KFL1 231453Z 31014KT M10/M14 A2989 RMK A01 T11011139  RH  074%=      5-min Rain = 0
KFL1 231454Z 30015KT M10/M14 A2989 RMK A01 T11021140  RH  074%=      5-min Rain = 0
KFL1 231455Z 31015KT M10/M14 A2989 RMK A01 T11011139  RH  074%=      5-min Rain = 0
KFL1 231456Z 30015KT M10/M14 A2989 RMK A01 T11001138  RH  074%=      5-min Rain = 0
KFL1 231457Z 31016KT M10/M14 A2989 RMK A01 T11021139  RH  074%=      5-min Rain = 0
KFL1 231458Z 31015KT M10/M14 A2989 RMK A01 T11021140  RH  074%=      5-min Rain = 0
KFL1 231459Z 31015KT M10/M14 A2989 RMK A01 T11011139  RH  074%=      5-min Rain = 0
KFL1 231500Z 31015KT M10/M14 A2989 RMK A01 T11001138  RH  074%=      5-min Rain = 0
KFL1 231501Z 31016KT M10/M14 A2989 RMK A01 T11011139  RH  074%=      5-min Rain = 0
KFL1 231502Z 31013KT M10/M14 A2989 RMK A01 T11011140  RH  073%=      5-min Rain = 0
KFL1 231503Z 31015KT M10/M14 A2989 RMK A01 T10991139  RH  073%=      5-min Rain = 0
KFL1 231504Z 31014KT M10/M14 A2989 RMK A01 T10981138  RH  073%=      5-min Rain = 0
KFL1 231505Z 30013KT M10/M14 A2989 RMK A01 T10991140  RH  072%=      5-min Rain = 0
KFL1 231506Z 30016KT M10/M14 A2989 RMK A01 T11001140  RH  072%=      5-min Rain = 0
KFL1 231507Z 31014KT M10/M14 A2989 RMK A01 T10991139  RH  072%=      5-min Rain = 0
KFL1 231508Z 31015KT M10/M14 A2989 RMK A01 T10971138  RH  072%=      5-min Rain = 0
KFL1 231509Z 31014KT M10/M14 A2989 RMK A01 T10991139  RH  072%=      5-min Rain = 0
KFL1 231510Z 31013KT M10/M14 A2989 RMK A01 T10991140  RH  072%=      5-min Rain = 0
KFL1 231511Z 31013KT M10/M14 A2989 RMK A01 T10991140  RH  072%=      5-min Rain = 0
KFL1 231512Z 31015KT M10/M14 A2989 RMK A01 T10971138  RH  072%=      5-min Rain = 0
KFL1 231513Z 31013KT M10/M14 A2989 RMK A01 T10981140  RH  072%=      5-min Rain = 0
KFL1 231514Z 31014KT M10/M14 A2989 RMK A01 T10991140  RH  072%=      5-min Rain = 0
KFL1 231515Z 31014KT M10/M14 A299 RMK A01 T10981139  RH  072%=      5-min Rain = 0
KFL1 231516Z 32012KT M10/M14 A299 RMK A01 T10951137  RH  071%=      5-min Rain = 0
KFL1 231517Z 32012KT M10/M14 A299 RMK A01 T10961139  RH  071%=      5-min Rain = 0
KFL1 231518Z 32011KT M10/M14 A299 RMK A01 T10961140  RH  070%=      5-min Rain = 0
KFL1 231519Z 32008KT M10/M14 A299 RMK A01 T10951140  RH  070%=      5-min Rain = 0
KFL1 231520Z 32006KT M09/M14 A2991 RMK A01 T10941139  RH  070%=      5-min Rain = 0
KFL1 231521Z 32006KT M09/M14 A2991 RMK A01 T10941138  RH  070%=      5-min Rain = 0
KFL1 231522Z 32005KT M09/M14 A2991 RMK A01 T10931137  RH  070%=      5-min Rain = 0
KFL1 231523Z 31003KT M09/M14 A2991 RMK A01 T10911135  RH  070%=      5-min Rain = 0
KFL1 231524Z 20000KT M09/M13 A2991 RMK A01 T10881131  RH  071%=      5-min Rain = 0
KFL1 231525Z 23000KT M09/M13 A2992 RMK A01 T10871133  RH  069%=      5-min Rain = 0
KFL1 231526Z 16002KT M09/M13 A2992 RMK A01 T10861134  RH  068%=      5-min Rain = 0
KFL1 231527Z 16004KT M08/M13 A2992 RMK A01 T10831130  RH  069%=      5-min Rain = 0
KFL1 231528Z 16005KT M08/M12 A2992 RMK A01 T10811124  RH  071%=      5-min Rain = 0
KFL1 231529Z 15007KT M08/M12 A2992 RMK A01 T10801123  RH  071%=      5-min Rain = 0
KFL1 231530Z 16007KT M08/M12 A2992 RMK A01 T10801124  RH  071%=      5-min Rain = 0
KFL1 231531Z 15005KT M08/M13 A2992 RMK A01 T10821127  RH  070%=      5-min Rain = 0
KFL1 231532Z 16006KT M08/M13 A2992 RMK A01 T10821127  RH  070%=      5-min Rain = 0
KFL1 231533Z 17006KT M08/M13 A2992 RMK A01 T10821126  RH  071%=      5-min Rain = 0
KFL1 231534Z 18004KT M08/M13 A2993 RMK A01 T10831126  RH  071%=      5-min Rain = 0
KFL1 231535Z 15005KT M08/M13 A2993 RMK A01 T10831125  RH  072%=      5-min Rain = 0
KFL1 231536Z 16006KT M08/M12 A2993 RMK A01 T10821123  RH  072%=      5-min Rain = 0
KFL1 231537Z 16005KT M08/M12 A2993 RMK A01 T10801121  RH  072%=      5-min Rain = 0
KFL1 231538Z 17008KT M08/M12 A2993 RMK A01 T10811124  RH  071%=      5-min Rain = 0
KFL1 231539Z 16008KT M08/M13 A2993 RMK A01 T10811125  RH  071%=      5-min Rain = 0
KFL1 231540Z 18006KT M08/M12 A2993 RMK A01 T10811124  RH  071%=      5-min Rain = 0
KFL1 231541Z 20007KT M08/M12 A2994 RMK A01 T10801123  RH  071%=      5-min Rain = 0
KFL1 231542Z 20004KT M08/M12 A2994 RMK A01 T10791123  RH  071%=      5-min Rain = 0
KFL1 231543Z 19006KT M08/M13 A2994 RMK A01 T10811125  RH  071%=      5-min Rain = 0
KFL1 231544Z 19005KT M08/M13 A2994 RMK A01 T10811125  RH  071%=      5-min Rain = 0
KFL1 231545Z 19004KT M08/M12 A2994 RMK A01 T10801124  RH  071%=      5-min Rain = 0
KFL1 231546Z 16002KT M08/M12 A2994 RMK A01 T10771120  RH  071%=      5-min Rain = 0
KFL1 231547Z 29001KT M08/M12 A2994 RMK A01 T10751119  RH  071%=      5-min Rain = 0
KFL1 231548Z 18002KT M08/M13 A2994 RMK A01 T10761125  RH  068%=      5-min Rain = 0
KFL1 231549Z 11004KT M08/M13 A2994 RMK A01 T10761128  RH  066%=      5-min Rain = 0
KFL1 231550Z 08003KT M08/M13 A2994 RMK A01 T10761128  RH  066%=      5-min Rain = 0
KFL1 231551Z 09003KT M08/M13 A2994 RMK A01 T10761127  RH  067%=      5-min Rain = 0
KFL1 231552Z 01004KT M08/M13 A2994 RMK A01 T10761125  RH  068%=      5-min Rain = 0
KFL1 231553Z 01005KT M08/M13 A2994 RMK A01 T10761134  RH  063%=      5-min Rain = 0
KFL1 231554Z 32004KT M08/M14 A2994 RMK A01 T10791141  RH  061%=      5-min Rain = 0
KFL1 231555Z 29003KT M08/M14 A2994 RMK A01 T10841144  RH  062%=      5-min Rain = 0
KFL1 231556Z 28002KT M09/M14 A2994 RMK A01 T10861140  RH  065%=      5-min Rain = 0
KFL1 231557Z 30002KT M09/M14 A2994 RMK A01 T10851138  RH  066%=      5-min Rain = 0
KFL1 231558Z 32002KT M08/M14 A2994 RMK A01 T10841139  RH  065%=      5-min Rain = 0
KFL1 231559Z 34002KT M08/M14 A2994 RMK A01 T10811139  RH  063%=      5-min Rain = 0
KFL1 231600Z 34003KT M08/M14 A2994 RMK A01 T10821140  RH  063%=      5-min Rain = 0
KFL1 231601Z 31002KT M08/M14 A2994 RMK A01 T10811139  RH  063%=      5-min Rain = 0
KFL1 231602Z 32004KT M08/M14 A2994 RMK A01 T10801138  RH  063%=      5-min Rain = 0
KFL1 231603Z 02003KT M08/M14 A2994 RMK A01 T10771135  RH  063%=      5-min Rain = 0
KFL1 231604Z 35003KT M08/M14 A2994 RMK A01 T10761138  RH  061%=      5-min Rain = 0
KFL1 231605Z 01002KT M08/M14 A2994 RMK A01 T10761137  RH  062%=      5-min Rain = 0
KFL1 231606Z 01002KT M07/M13 A2994 RMK A01 T10731127  RH  065%=      5-min Rain = 0
KFL1 231607Z 02001KT M07/M13 A2994 RMK A01 T10711126  RH  065%=      5-min Rain = 0
KFL1 231608Z 14001KT M07/M12 A2994 RMK A01 T10671122  RH  065%=      5-min Rain = 0
KFL1 231609Z 15004KT M06/M12 A2994 RMK A01 T10641121  RH  064%=      5-min Rain = 0
KFL1 231610Z 14005KT M06/M12 A2994 RMK A01 T10641124  RH  062%=      5-min Rain = 0
KFL1 231611Z 12004KT M07/M13 A2994 RMK A01 T10651126  RH  062%=      5-min Rain = 0
KFL1 231612Z 14004KT M07/M13 A2994 RMK A01 T10671126  RH  063%=      5-min Rain = 0
KFL1 231613Z 15004KT M07/M13 A2994 RMK A01 T10671128  RH  062%=      5-min Rain = 0
KFL1 231614Z 15006KT M07/M13 A2994 RMK A01 T10661125  RH  063%=      5-min Rain = 0
KFL1 231615Z 16007KT M06/M12 A2994 RMK A01 T10631119  RH  065%=      5-min Rain = 0
KFL1 231616Z 16007KT M06/M12 A2994 RMK A01 T10641119  RH  065%=      5-min Rain = 0
KFL1 231617Z 15007KT M06/M12 A2994 RMK A01 T10631117  RH  066%=      5-min Rain = 0
KFL1 231618Z 15007KT M06/M12 A2994 RMK A01 T10631120  RH  064%=      5-min Rain = 0
KFL1 231619Z 14005KT M06/M12 A2994 RMK A01 T10631121  RH  064%=      5-min Rain = 0
KFL1 231620Z 15006KT M06/M12 A2994 RMK A01 T10631119  RH  065%=      5-min Rain = 0
KFL1 231621Z 16006KT M06/M12 A2995 RMK A01 T10631117  RH  066%=      5-min Rain = 0
KFL1 231622Z 18004KT M06/M12 A2994 RMK A01 T10631117  RH  065%=      5-min Rain = 0
KFL1 231623Z 19005KT M06/M12 A2995 RMK A01 T10611116  RH  065%=      5-min Rain = 0
KFL1 231624Z 18005KT M06/M12 A2995 RMK A01 T10591115  RH  065%=      5-min Rain = 0
KFL1 231625Z 19005KT M06/M12 A2995 RMK A01 T10601115  RH  065%=      5-min Rain = 0
KFL1 231626Z 18005KT M06/M12 A2995 RMK A01 T10601118  RH  064%=      5-min Rain = 0
KFL1 231627Z 17004KT M06/M12 A2995 RMK A01 T10581115  RH  064%=      5-min Rain = 0
KFL1 231628Z 20005KT M06/M11 A2995 RMK A01 T10551112  RH  064%=      5-min Rain = 0
KFL1 231629Z 21007KT M06/M12 A2995 RMK A01 T10571118  RH  062%=      5-min Rain = 0
KFL1 231630Z 21009KT M06/M12 A2995 RMK A01 T10601123  RH  061%=      5-min Rain = 0
KFL1 231631Z 20007KT M06/M13 A2995 RMK A01 T10641125  RH  062%=      5-min Rain = 0
KFL1 231632Z 21006KT M07/M13 A2995 RMK A01 T10661125  RH  063%=      5-min Rain = 0
KFL1 231633Z 21007KT M07/M13 A2995 RMK A01 T10681125  RH  064%=      5-min Rain = 0
KFL1 231634Z 21009KT M07/M13 A2995 RMK A01 T10701125  RH  065%=      5-min Rain = 0
KFL1 231635Z 22008KT M07/M13 A2995 RMK A01 T10721127  RH  065%=      5-min Rain = 0
KFL1 231636Z 23007KT M08/M13 A2995 RMK A01 T10761130  RH  065%=      5-min Rain = 0
KFL1 231637Z 23007KT M08/M13 A2996 RMK A01 T10771128  RH  066%=      5-min Rain = 0
KFL1 231638Z 23010KT M08/M13 A2996 RMK A01 T10781129  RH  067%=      5-min Rain = 0
KFL1 231639Z 24010KT M08/M13 A2996 RMK A01 T10801131  RH  067%=      5-min Rain = 0
KFL1 231640Z 24008KT M08/M13 A2996 RMK A01 T10821131  RH  068%=      5-min Rain = 0
KFL1 231641Z 24008KT M08/M13 A2996 RMK A01 T10821131  RH  068%=      5-min Rain = 0
KFL1 231642Z 24007KT M08/M13 A2996 RMK A01 T10811130  RH  068%=      5-min Rain = 0
KFL1 231643Z 24007KT M08/M13 A2996 RMK A01 T10831131  RH  068%=      5-min Rain = 0
KFL1 231644Z 24007KT M08/M13 A2996 RMK A01 T10831131  RH  068%=      5-min Rain = 0
KFL1 231645Z 25008KT M08/M13 A2996 RMK A01 T10811129  RH  068%=      5-min Rain = 0
KFL1 231646Z 25009KT M08/M13 A2996 RMK A01 T10811129  RH  068%=      5-min Rain = 0
KFL1 231647Z 25009KT M08/M13 A2996 RMK A01 T10821131  RH  068%=      5-min Rain = 0
KFL1 231648Z 24009KT M08/M13 A2996 RMK A01 T10821131  RH  068%=      5-min Rain = 0
KFL1 231649Z 24008KT M08/M13 A2996 RMK A01 T10811130  RH  068%=      5-min Rain = 0
KFL1 231650Z 24009KT M08/M13 A2996 RMK A01 T10791128  RH  068%=      5-min Rain = 0
KFL1 231651Z 24009KT M08/M13 A2996 RMK A01 T10801128  RH  068%=      5-min Rain = 0
KFL1 231652Z 24008KT M08/M13 A2997 RMK A01 T10801129  RH  068%=      5-min Rain = 0
KFL1 231653Z 25007KT M08/M13 A2997 RMK A01 T10801128  RH  068%=      5-min Rain = 0
KFL1 231654Z 24007KT M08/M13 A2997 RMK A01 T10781127  RH  068%=      5-min Rain = 0
KFL1 231655Z 24005KT M08/M12 A2997 RMK A01 T10761124  RH  068%=      5-min Rain = 0
KFL1 231656Z 25007KT M08/M12 A2997 RMK A01 T10751124  RH  068%=      5-min Rain = 0
KFL1 231657Z 25007KT M07/M13 A2997 RMK A01 T10741125  RH  067%=      5-min Rain = 0
KFL1 231658Z 25007KT M07/M12 A2997 RMK A01 T10731123  RH  067%=      5-min Rain = 0
KFL1 231659Z 25008KT M07/M12 A2997 RMK A01 T10711122  RH  067%=      5-min Rain = 0
KFL1 231700Z 24006KT M07/M12 A2997 RMK A01 T10701123  RH  066%=      5-min Rain = 0
KFL1 231701Z 24007KT M07/M12 A2997 RMK A01 T10701124  RH  065%=      5-min Rain = 0
KFL1 231702Z 24007KT M07/M13 A2997 RMK A01 T10701125  RH  065%=      5-min Rain = 0
KFL1 231703Z 24006KT M07/M12 A2997 RMK A01 T10701124  RH  065%=      5-min Rain = 0
KFL1 231704Z 24005KT M07/M12 A2997 RMK A01 T10691122  RH  066%=      5-min Rain = 0
KFL1 231705Z 25005KT M07/M12 A2997 RMK A01 T10691122  RH  066%=      5-min Rain = 0
KFL1 231706Z 24006KT M07/M12 A2997 RMK A01 T10671121  RH  066%=      5-min Rain = 0
KFL1 231707Z 21004KT M06/M12 A2997 RMK A01 T10641117  RH  066%=      5-min Rain = 0
KFL1 231708Z 23005KT M06/M12 A2997 RMK A01 T10611116  RH  065%=      5-min Rain = 0
KFL1 231709Z 22003KT M06/M12 A2997 RMK A01 T10601116  RH  064%=      5-min Rain = 0
KFL1 231710Z 21003KT M06/M12 A2997 RMK A01 T10581115  RH  064%=      5-min Rain = 0
KFL1 231711Z 23004KT M06/M11 A2997 RMK A01 T10551111  RH  065%=      5-min Rain = 0
KFL1 231712Z 24005KT M05/M11 A2997 RMK A01 T10521111  RH  063%=      5-min Rain = 0
KFL1 231713Z 22005KT M05/M11 A2997 RMK A01 T10521114  RH  062%=      5-min Rain = 0
KFL1 231714Z 21006KT M05/M12 A2997 RMK A01 T10531115  RH  062%=      5-min Rain = 0
KFL1 231715Z 21006KT M05/M12 A2997 RMK A01 T10541115  RH  062%=      5-min Rain = 0
KFL1 231716Z 23006KT M06/M12 A2998 RMK A01 T10551117  RH  062%=      5-min Rain = 0
KFL1 231717Z 23006KT M06/M12 A2998 RMK A01 T10551118  RH  061%=      5-min Rain = 0
KFL1 231718Z 23004KT M06/M12 A2998 RMK A01 T10561120  RH  061%=      5-min Rain = 0
KFL1 231719Z 22006KT M06/M12 A2998 RMK A01 T10571119  RH  062%=      5-min Rain = 0
KFL1 231720Z 22006KT M06/M12 A2998 RMK A01 T10571117  RH  062%=      5-min Rain = 0
KFL1 231721Z 21007KT M06/M12 A2998 RMK A01 T10551115  RH  063%=      5-min Rain = 0
KFL1 231722Z 23008KT M05/M11 A2998 RMK A01 T10521114  RH  062%=      5-min Rain = 0
KFL1 231723Z 23009KT M05/M12 A2998 RMK A01 T10521115  RH  061%=      5-min Rain = 0
KFL1 231724Z 24008KT M06/M12 A2998 RMK A01 T10551118  RH  061%=      5-min Rain = 0
KFL1 231725Z 22010KT M06/M12 A2998 RMK A01 T10571118  RH  062%=      5-min Rain = 0
KFL1 231726Z 21008KT M06/M12 A2998 RMK A01 T10561116  RH  063%=      5-min Rain = 0
KFL1 231727Z 22007KT M05/M11 A2998 RMK A01 T10531111  RH  064%=      5-min Rain = 0
KFL1 231728Z 24004KT M05/M11 A2998 RMK A01 T10531111  RH  064%=      5-min Rain = 0
KFL1 231729Z 25006KT M05/M11 A2998 RMK A01 T10531112  RH  063%=      5-min Rain = 0
KFL1 231730Z 26007KT M05/M11 A2998 RMK A01 T10511111  RH  063%=      5-min Rain = 0
KFL1 231731Z 25006KT M05/M11 A2998 RMK A01 T10491111  RH  062%=      5-min Rain = 0
KFL1 231732Z 25006KT M05/M11 A2998 RMK A01 T10491111  RH  062%=      5-min Rain = 0
KFL1 231733Z 26007KT M05/M11 A2998 RMK A01 T10491110  RH  062%=      5-min Rain = 0
KFL1 231734Z 26007KT M05/M11 A2998 RMK A01 T10471109  RH  062%=      5-min Rain = 0
KFL1 231735Z 25008KT M05/M11 A2998 RMK A01 T10471110  RH  062%=      5-min Rain = 0
KFL1 231736Z 26007KT M05/M11 A2998 RMK A01 T10481111  RH  061%=      5-min Rain = 0
KFL1 231737Z 28008KT M05/M11 A2998 RMK A01 T10491111  RH  062%=      5-min Rain = 0
KFL1 231738Z 27008KT M05/M11 A2998 RMK A01 T10491114  RH  060%=      5-min Rain = 0
KFL1 231739Z 27008KT M05/M12 A2998 RMK A01 T10491116  RH  059%=      5-min Rain = 0
KFL1 231740Z 27009KT M05/M12 A2999 RMK A01 T10491115  RH  060%=      5-min Rain = 0
KFL1 231741Z 26012KT M05/M11 A2999 RMK A01 T10501113  RH  061%=      5-min Rain = 0
KFL1 231742Z 25013KT M05/M12 A2999 RMK A01 T10531115  RH  062%=      5-min Rain = 0
KFL1 231743Z 24008KT M06/M11 A2999 RMK A01 T10551114  RH  063%=      5-min Rain = 0
KFL1 231744Z 26010KT M05/M11 A30 RMK A01 T10531111  RH  064%=      5-min Rain = 0
KFL1 231745Z 25010KT M05/M11 A30 RMK A01 T10531111  RH  064%=      5-min Rain = 0
KFL1 231746Z 24011KT M05/M11 A30 RMK A01 T10541112  RH  064%=      5-min Rain = 0
KFL1 231747Z 26010KT M05/M11 A30 RMK A01 T10541113  RH  063%=      5-min Rain = 0
KFL1 231748Z 26012KT M05/M11 A30 RMK A01 T10531113  RH  063%=      5-min Rain = 0
KFL1 231749Z 25013KT M05/M11 A30 RMK A01 T10521112  RH  063%=      5-min Rain = 0
KFL1 231750Z 26008KT M05/M11 A30 RMK A01 T10531112  RH  063%=      5-min Rain = 0
KFL1 231751Z 27011KT M05/M11 A30 RMK A01 T10521111  RH  063%=      5-min Rain = 0
KFL1 231752Z 27011KT M05/M11 A30 RMK A01 T10511112  RH  063%=      5-min Rain = 0
KFL1 231753Z 25007KT M05/M11 A30 RMK A01 T10501110  RH  063%=      5-min Rain = 0
KFL1 231754Z 25007KT M05/M11 A30 RMK A01 T10481108  RH  063%=      5-min Rain = 0
KFL1 231755Z 27011KT M05/M11 A30 RMK A01 T10491110  RH  062%=      5-min Rain = 0
KFL1 231756Z 25008KT M05/M11 A30 RMK A01 T10501112  RH  062%=      5-min Rain = 0
KFL1 231757Z 23008KT M05/M11 A30 RMK A01 T10501109  RH  064%=      5-min Rain = 0
KFL1 231758Z 24008KT M05/M11 A30 RMK A01 T10491107  RH  064%=      5-min Rain = 0
KFL1 231759Z 26008KT M05/M11 A30 RMK A01 T10501109  RH  063%=      5-min Rain = 0
KFL1 231800Z 27012KT M05/M11 A30 RMK A01 T10501111  RH  062%=      5-min Rain = 0
KFL1 231801Z 26010KT M05/M11 A30 RMK A01 T10501109  RH  063%=      5-min Rain = 0
KFL1 231802Z 24010KT M05/M11 A30 RMK A01 T10491107  RH  064%=      5-min Rain = 0
KFL1 231803Z 23011KT M05/M11 A30 RMK A01 T10491108  RH  063%=      5-min Rain = 0
KFL1 231804Z 23010KT M05/M11 A30 RMK A01 T10501108  RH  064%=      5-min Rain = 0
KFL1 231805Z 23010KT M05/M11 A30 RMK A01 T10501107  RH  064%=      5-min Rain = 0
KFL1 231806Z 23007KT M05/M11 A30 RMK A01 T10491106  RH  064%=      5-min Rain = 0
KFL1 231807Z 23007KT M05/M10 A30 RMK A01 T10471104  RH  064%=      5-min Rain = 0
KFL1 231808Z 24009KT M04/M10 A30 RMK A01 T10441102  RH  064%=      5-min Rain = 0
KFL1 231809Z 26011KT M05/M11 A30 RMK A01 T10451105  RH  063%=      5-min Rain = 0
KFL1 231810Z 25009KT M05/M11 A3001 RMK A01 T10451106  RH  062%=      5-min Rain = 0
KFL1 231811Z 26009KT M05/M11 A3001 RMK A01 T10451106  RH  062%=      5-min Rain = 0
KFL1 231812Z 26013KT M05/M11 A3001 RMK A01 T10451107  RH  062%=      5-min Rain = 0
KFL1 231813Z 26011KT M04/M11 A3001 RMK A01 T10441106  RH  062%=      5-min Rain = 0
KFL1 231814Z 26010KT M05/M11 A3001 RMK A01 T10451106  RH  062%=      5-min Rain = 0
KFL1 231815Z 26009KT M05/M11 A3001 RMK A01 T10451108  RH  062%=      5-min Rain = 0
KFL1 231816Z 25008KT M05/M11 A3001 RMK A01 T10461108  RH  062%=      5-min Rain = 0
KFL1 231817Z 26009KT M04/M11 A3001 RMK A01 T10441105  RH  063%=      5-min Rain = 0
KFL1 231818Z 27011KT M04/M11 A3001 RMK A01 T10441105  RH  062%=      5-min Rain = 0
KFL1 231819Z 26010KT M05/M11 A3001 RMK A01 T10451110  RH  060%=      5-min Rain = 0
KFL1 231820Z 27009KT M05/M11 A3001 RMK A01 T10461111  RH  060%=      5-min Rain = 0
KFL1 231821Z 27010KT M05/M11 A3001 RMK A01 T10461109  RH  061%=      5-min Rain = 0
KFL1 231822Z 26010KT M04/M11 A3001 RMK A01 T10441107  RH  061%=      5-min Rain = 0
KFL1 231823Z 28009KT M04/M11 A3001 RMK A01 T10441107  RH  061%=      5-min Rain = 0
KFL1 231824Z 30010KT M04/M11 A3001 RMK A01 T10441106  RH  062%=      5-min Rain = 0
KFL1 231825Z 30012KT M05/M11 A3001 RMK A01 T10451106  RH  062%=      5-min Rain = 0
KFL1 231826Z 29016KT M05/M11 A3001 RMK A01 T10451106  RH  062%=      5-min Rain = 0
KFL1 231827Z 30014KT M04/M11 A3001 RMK A01 T10441106  RH  062%=      5-min Rain = 0
KFL1 231828Z 30012G17KT M05/M11 A3001 RMK A01 T10451109  RH  061%=      5-min Rain = 0
KFL1 231829Z 29013KT M05/M11 A3001 RMK A01 T10461110  RH  061%=      5-min Rain = 0
KFL1 231830Z 30012KT M05/M11 A3001 RMK A01 T10451109  RH  061%=      5-min Rain = 0
KFL1 231831Z 29011KT M05/M11 A3001 RMK A01 T10451107  RH  062%=      5-min Rain = 0
KFL1 231832Z 30009KT M04/M11 A3001 RMK A01 T10441106  RH  062%=      5-min Rain = 0
KFL1 231833Z 30010KT M05/M11 A3001 RMK A01 T10451108  RH  062%=      5-min Rain = 0
KFL1 231834Z 30011KT M04/M11 A3001 RMK A01 T10441108  RH  061%=      5-min Rain = 0
KFL1 231835Z 30011KT M04/M11 A3001 RMK A01 T10441108  RH  061%=      5-min Rain = 0
KFL1 231836Z 31010KT M04/M11 A3001 RMK A01 T10421108  RH  060%=      5-min Rain = 0
KFL1 231837Z 31006KT M04/M11 A3001 RMK A01 T10421108  RH  060%=      5-min Rain = 0
KFL1 231838Z 30007KT M04/M11 A3001 RMK A01 T10401106  RH  060%=      5-min Rain = 0
KFL1 231839Z 31006KT M04/M11 A3001 RMK A01 T10401106  RH  060%=      5-min Rain = 0
KFL1 231840Z 30005KT M04/M11 A3001 RMK A01 T10391106  RH  059%=      5-min Rain = 0
KFL1 231841Z 30009KT M04/M10 A3001 RMK A01 T10361102  RH  060%=      5-min Rain = 0
KFL1 231842Z 30012KT M04/M10 A3001 RMK A01 T10361104  RH  059%=      5-min Rain = 0
KFL1 231843Z 30009KT M04/M11 A3001 RMK A01 T10371107  RH  058%=      5-min Rain = 0
KFL1 231844Z 30009KT M04/M11 A3001 RMK A01 T10381108  RH  058%=      5-min Rain = 0
KFL1 231845Z 31007KT M04/M11 A3001 RMK A01 T10371108  RH  058%=      5-min Rain = 0
KFL1 231846Z 31010KT M04/M11 A3001 RMK A01 T10371107  RH  059%=      5-min Rain = 0
KFL1 231847Z 31010KT M04/M11 A3001 RMK A01 T10381107  RH  059%=      5-min Rain = 0
KFL1 231848Z 31009KT M04/M11 A3001 RMK A01 T10371108  RH  058%=      5-min Rain = 0
KFL1 231849Z 31008KT M04/M11 A3001 RMK A01 T10361107  RH  058%=      5-min Rain = 0
KFL1 231850Z 31011KT M03/M11 A3001 RMK A01 T10341105  RH  058%=      5-min Rain = 0
KFL1 231851Z 30010KT M04/M11 A3001 RMK A01 T10351105  RH  058%=      5-min Rain = 0
KFL1 231852Z 31011KT M04/M11 A3001 RMK A01 T10351106  RH  058%=      5-min Rain = 0
KFL1 231853Z 31011KT M04/M11 A3001 RMK A01 T10371109  RH  058%=      5-min Rain = 0
KFL1 231854Z 31010KT M04/M11 A3001 RMK A01 T10361107  RH  058%=      5-min Rain = 0
KFL1 231855Z 31009KT M04/M11 A3001 RMK A01 T10371108  RH  058%=      5-min Rain = 0
KFL1 231856Z 31008KT M04/M11 A3001 RMK A01 T10351105  RH  058%=      5-min Rain = 0
KFL1 231857Z 31010KT M04/M11 A3001 RMK A01 T10351105  RH  058%=      5-min Rain = 0
KFL1 231858Z 31008KT M04/M11 A3001 RMK A01 T10351107  RH  058%=      5-min Rain = 0
KFL1 231859Z 29010KT M03/M11 A3001 RMK A01 T10331106  RH  057%=      5-min Rain = 0
KFL1 231900Z 30012KT M04/M11 A3001 RMK A01 T10351106  RH  058%=      5-min Rain = 0
KFL1 231901Z 30011KT M04/M11 A3001 RMK A01 T10351107  RH  057%=      5-min Rain = 0
KFL1 231902Z 30013KT M03/M11 A3001 RMK A01 T10341106  RH  058%=      5-min Rain = 0
KFL1 231903Z 30013KT M03/M11 A3001 RMK A01 T10341106  RH  058%=      5-min Rain = 0
KFL1 231904Z 30011KT M04/M11 A3001 RMK A01 T10361106  RH  058%=      5-min Rain = 0
KFL1 231905Z 30010KT M04/M11 A3001 RMK A01 T10371107  RH  058%=      5-min Rain = 0
KFL1 231906Z 31008G13KT M04/M11 A3001 RMK A01 T10381108  RH  059%=      5-min Rain = 0
KFL1 231907Z 30011G18KT M04/M11 A3001 RMK A01 T10371107  RH  059%=      5-min Rain = 0
KFL1 231908Z 30010KT M04/M11 A3001 RMK A01 T10381108  RH  058%=      5-min Rain = 0
KFL1 231909Z 30010KT M04/M11 A3001 RMK A01 T10391109  RH  058%=      5-min Rain = 0
KFL1 231910Z 30011KT M04/M11 A3001 RMK A01 T10391106  RH  060%=      5-min Rain = 0
KFL1 231911Z 31009KT M04/M11 A3001 RMK A01 T10381106  RH  059%=      5-min Rain = 0
KFL1 231912Z 30008KT M04/M10 A3001 RMK A01 T10361104  RH  059%=      5-min Rain = 0
KFL1 231913Z 31010KT M04/M10 A3001 RMK A01 T10361104  RH  059%=      5-min Rain = 0
KFL1 231914Z 30009G15KT M04/M10 A3002 RMK A01 T10351103  RH  059%=      5-min Rain = 0
KFL1 231915Z 30010KT M04/M11 A3001 RMK A01 T10361106  RH  058%=      5-min Rain = 0
KFL1 231916Z 31008KT M04/M11 A3001 RMK A01 T10351105  RH  058%=      5-min Rain = 0
KFL1 231917Z 30012KT M03/M10 A3001 RMK A01 T10341104  RH  059%=      5-min Rain = 0
KFL1 231918Z 30009KT M03/M11 A3001 RMK A01 T10341105  RH  058%=      5-min Rain = 0
KFL1 231919Z 31009KT M04/M11 A3001 RMK A01 T10361108  RH  057%=      5-min Rain = 0
KFL1 231920Z 31011KT M03/M11 A3002 RMK A01 T10341106  RH  057%=      5-min Rain = 0
KFL1 231921Z 30012KT M04/M11 A3001 RMK A01 T10351106  RH  058%=      5-min Rain = 0
KFL1 231922Z 30010G15KT M04/M11 A3001 RMK A01 T10361106  RH  059%=      5-min Rain = 0
KFL1 231923Z 30013KT M04/M11 A3001 RMK A01 T10361106  RH  058%=      5-min Rain = 0
KFL1 231924Z 31011KT M04/M11 A3002 RMK A01 T10361105  RH  059%=      5-min Rain = 0
KFL1 231925Z 30011KT M04/M11 A3002 RMK A01 T10381107  RH  059%=      5-min Rain = 0
KFL1 231926Z 30015KT M04/M11 A3002 RMK A01 T10381105  RH  059%=      5-min Rain = 0
KFL1 231927Z 30015KT M04/M11 A3002 RMK A01 T10391106  RH  059%=      5-min Rain = 0
KFL1 231928Z 31015KT M04/M11 A3002 RMK A01 T10391105  RH  060%=      5-min Rain = 0
KFL1 231929Z 31015KT M04/M10 A3002 RMK A01 T10391104  RH  060%=      5-min Rain = 0
KFL1 231930Z 31017KT M04/M11 A3002 RMK A01 T10401107  RH  060%=      5-min Rain = 0
KFL1 231931Z 31016KT M04/M11 A3002 RMK A01 T10411107  RH  060%=      5-min Rain = 0
KFL1 231932Z 31012KT M04/M11 A3002 RMK A01 T10411108  RH  060%=      5-min Rain = 0
KFL1 231933Z 32015KT M04/M11 A3002 RMK A01 T10391107  RH  059%=      5-min Rain = 0
KFL1 231934Z 32017KT M04/M11 A3002 RMK A01 T10411107  RH  060%=      5-min Rain = 0
KFL1 231935Z 32016KT M04/M11 A3002 RMK A01 T10411108  RH  060%=      5-min Rain = 0
KFL1 231936Z 31016KT M04/M11 A3002 RMK A01 T10411107  RH  060%=      5-min Rain = 0
KFL1 231937Z 31014KT M04/M11 A3002 RMK A01 T10401108  RH  060%=      5-min Rain = 0
KFL1 231938Z 31018G23KT M04/M11 A3002 RMK A01 T10401109  RH  059%=      5-min Rain = 0
KFL1 231939Z 31017G23KT M04/M11 A3002 RMK A01 T10401108  RH  059%=      5-min Rain = 0
KFL1 231940Z 31017KT M04/M11 A3002 RMK A01 T10411108  RH  060%=      5-min Rain = 0
KFL1 231941Z 31019KT M04/M11 A3002 RMK A01 T10411108  RH  060%=      5-min Rain = 0
KFL1 231942Z 31017KT M04/M11 A3002 RMK A01 T10411108  RH  060%=      5-min Rain = 0
KFL1 231943Z 31017KT M04/M11 A3002 RMK A01 T10421107  RH  060%=      5-min Rain = 0
KFL1 231944Z 31018G24KT M04/M11 A3002 RMK A01 T10411107  RH  060%=      5-min Rain = 0.01
KFL1 231945Z 31015G21KT M04/M11 A3002 RMK A01 T10421108  RH  060%=      5-min Rain = 0
KFL1 231946Z 31017KT M04/M11 A3002 RMK A01 T10411108  RH  059%=      5-min Rain = 0
KFL1 231947Z 30019KT M04/M11 A3002 RMK A01 T10411107  RH  060%=      5-min Rain = 0
KFL1 231948Z 30018KT M04/M11 A3002 RMK A01 T10401106  RH  060%=      5-min Rain = 0
KFL1 231949Z 31020G25KT M04/M11 A3002 RMK A01 T10401107  RH  060%=      5-min Rain = 0
KFL1 231950Z 31020KT M04/M11 A3002 RMK A01 T10411108  RH  060%=      5-min Rain = 0
KFL1 231951Z 30020KT M04/M11 A3002 RMK A01 T10421109  RH  060%=      5-min Rain = 0
KFL1 231952Z 30020KT M04/M11 A3002 RMK A01 T10421108  RH  060%=      5-min Rain = 0
KFL1 231953Z 31023KT M04/M11 A3002 RMK A01 T10421108  RH  060%=      5-min Rain = 0
KFL1 231954Z 31018KT M04/M11 A3002 RMK A01 T10411108  RH  060%=      5-min Rain = 0
KFL1 231955Z 31019KT M04/M11 A3002 RMK A01 T10421110  RH  059%=      5-min Rain = 0
KFL1 231956Z 31019KT M04/M11 A3002 RMK A01 T10421110  RH  059%=      5-min Rain = 0
KFL1 231957Z 31018G24KT M04/M11 A3002 RMK A01 T10421110  RH  059%=      5-min Rain = 0
KFL1 231958Z 30020KT M04/M11 A3002 RMK A01 T10411109  RH  059%=      5-min Rain = 0
KFL1 231959Z 31019KT M04/M11 A3001 RMK A01 T10411109  RH  059%=      5-min Rain = 0
KFL1 232000Z 31017KT M04/M11 A3001 RMK A01 T10421111  RH  059%=      5-min Rain = 0
KFL1 232001Z 30015KT M04/M11 A3001 RMK A01 T10421110  RH  059%=      5-min Rain = 0
KFL1 232002Z 30018KT M04/M11 A3001 RMK A01 T10401110  RH  059%=      5-min Rain = 0
KFL1 232003Z 30021KT M04/M11 A3001 RMK A01 T10391108  RH  059%=      5-min Rain = 0
KFL1 232004Z 30020G25KT M04/M11 A3001 RMK A01 T10401110  RH  058%=      5-min Rain = 0
KFL1 232005Z 30015KT M04/M11 A3001 RMK A01 T10401111  RH  058%=      5-min Rain = 0
KFL1 232006Z 30017KT M04/M11 A3001 RMK A01 T10401109  RH  059%=      5-min Rain = 0
KFL1 232007Z 30020KT M04/M11 A3001 RMK A01 T10391108  RH  058%=      5-min Rain = 0
KFL1 232008Z 30017G22KT M04/M11 A3001 RMK A01 T10371108  RH  058%=      5-min Rain = 0
KFL1 232009Z 30018G23KT M04/M11 A3001 RMK A01 T10391108  RH  059%=      5-min Rain = 0
KFL1 232010Z 31021KT M04/M11 A3001 RMK A01 T10401108  RH  059%=      5-min Rain = 0
KFL1 232011Z 31020KT M04/M11 A3001 RMK A01 T10401108  RH  059%=      5-min Rain = 0
KFL1 232012Z 30019KT M04/M11 A3001 RMK A01 T10381105  RH  060%=      5-min Rain = 0
KFL1 232013Z 31018KT M04/M11 A3001 RMK A01 T10391109  RH  058%=      5-min Rain = 0
KFL1 232014Z 30016G21KT M04/M11 A3001 RMK A01 T10381108  RH  059%=      5-min Rain = 0
KFL1 232015Z 31015KT M04/M11 A3001 RMK A01 T10391109  RH  058%=      5-min Rain = 0
KFL1 232016Z 31015KT M04/M11 A3001 RMK A01 T10381109  RH  058%=      5-min Rain = 0
KFL1 232017Z 31014KT M04/M11 A3001 RMK A01 T10371108  RH  058%=      5-min Rain = 0
KFL1 232018Z 31011KT M04/M11 A3001 RMK A01 T10351106  RH  058%=      5-min Rain = 0
KFL1 232019Z 30015KT M03/M11 A3001 RMK A01 T10341109  RH  056%=      5-min Rain = 0
KFL1 232020Z 32012KT M03/M11 A3001 RMK A01 T10341110  RH  056%=      5-min Rain = 0
KFL1 232021Z 30010G15KT M03/M11 A3001 RMK A01 T10331105  RH  057%=      5-min Rain = 0
KFL1 232022Z 29012G17KT M03/M10 A3001 RMK A01 T10321104  RH  057%=      5-min Rain = 0
KFL1 232023Z 31016KT M03/M10 A3001 RMK A01 T10311104  RH  057%=      5-min Rain = 0
KFL1 232024Z 31017KT M03/M11 A3001 RMK A01 T10311106  RH  056%=      5-min Rain = 0
KFL1 232025Z 30014KT M03/M10 A3001 RMK A01 T10311104  RH  057%=      5-min Rain = 0
KFL1 232026Z 30016G21KT M03/M10 A3001 RMK A01 T10321104  RH  057%=      5-min Rain = 0
KFL1 232027Z 30020KT M03/M11 A3001 RMK A01 T10321106  RH  056%=      5-min Rain = 0
KFL1 232028Z 31017KT M04/M11 A3001 RMK A01 T10351108  RH  057%=      5-min Rain = 0
KFL1 232029Z 31013G18KT M04/M11 A3001 RMK A01 T10351109  RH  056%=      5-min Rain = 0
KFL1 232030Z 31014KT M03/M11 A3001 RMK A01 T10341108  RH  057%=      5-min Rain = 0
KFL1 232031Z 30017G22KT M03/M11 A3001 RMK A01 T10321108  RH  056%=      5-min Rain = 0
KFL1 232032Z 31014KT M03/M11 A3002 RMK A01 T10321110  RH  055%=      5-min Rain = 0
KFL1 232033Z 30016KT M03/M11 A3002 RMK A01 T10331110  RH  055%=      5-min Rain = 0
KFL1 232034Z 30019KT M03/M11 A3002 RMK A01 T10321109  RH  055%=      5-min Rain = 0
KFL1 232035Z 30019KT M03/M11 A3001 RMK A01 T10331111  RH  055%=      5-min Rain = 0
KFL1 232036Z 30015KT M03/M11 A3002 RMK A01 T10331111  RH  055%=      5-min Rain = 0
KFL1 232037Z 31015KT M03/M11 A3002 RMK A01 T10341112  RH  055%=      5-min Rain = 0
KFL1 232038Z 31017G22KT M03/M11 A3002 RMK A01 T10311108  RH  055%=      5-min Rain = 0
KFL1 232039Z 31018G23KT M03/M11 A3002 RMK A01 T10301109  RH  055%=      5-min Rain = 0
KFL1 232040Z 31017KT M03/M11 A3002 RMK A01 T10311110  RH  054%=      5-min Rain = 0
KFL1 232041Z 30015KT M03/M11 A3002 RMK A01 T10311110  RH  054%=      5-min Rain = 0
KFL1 232042Z 31017KT M03/M11 A3002 RMK A01 T10291109  RH  054%=      5-min Rain = 0
KFL1 232043Z 29013KT M03/M11 A3002 RMK A01 T10301109  RH  054%=      5-min Rain = 0
KFL1 232044Z 31014G20KT M03/M11 A3002 RMK A01 T10301108  RH  055%=      5-min Rain = 0
KFL1 232045Z 31016KT M03/M11 A3002 RMK A01 T10291109  RH  054%=      5-min Rain = 0
KFL1 232046Z 29014KT M03/M11 A3002 RMK A01 T10291107  RH  055%=      5-min Rain = 0
KFL1 232047Z 29014KT M03/M11 A3002 RMK A01 T10281108  RH  054%=      5-min Rain = 0
KFL1 232048Z 30017KT M03/M11 A3003 RMK A01 T10281108  RH  054%=      5-min Rain = 0
KFL1 232049Z 30016KT M03/M11 A3003 RMK A01 T10271107  RH  054%=      5-min Rain = 0
KFL1 232050Z 30019KT M03/M11 A3003 RMK A01 T10291109  RH  054%=      5-min Rain = 0
KFL1 232051Z 29017KT M03/M11 A3003 RMK A01 T10301108  RH  055%=      5-min Rain = 0
KFL1 232052Z 29017KT M03/M11 A3003 RMK A01 T10321107  RH  056%=      5-min Rain = 0
KFL1 232053Z 30017KT M03/M11 A3003 RMK A01 T10331109  RH  056%=      5-min Rain = 0
KFL1 232054Z 29016KT M03/M11 A3003 RMK A01 T10331108  RH  056%=      5-min Rain = 0
KFL1 232055Z 29017G22KT M03/M11 A3003 RMK A01 T10321107  RH  056%=      5-min Rain = 0
KFL1 232056Z 30018G23KT M03/M11 A3003 RMK A01 T10331110  RH  055%=      5-min Rain = 0
KFL1 232057Z 30019G24KT M03/M11 A3003 RMK A01 T10331109  RH  056%=      5-min Rain = 0
KFL1 232058Z 29019KT M03/M11 A3003 RMK A01 T10331108  RH  056%=      5-min Rain = 0
KFL1 232059Z 30018KT M04/M11 A3003 RMK A01 T10351106  RH  058%=      5-min Rain = 0
KFL1 232100Z 30016KT M04/M11 A3003 RMK A01 T10351105  RH  059%=      5-min Rain = 0
KFL1 232101Z 30014KT M04/M11 A3003 RMK A01 T10361107  RH  058%=      5-min Rain = 0
KFL1 232102Z 29018G24KT M03/M11 A3003 RMK A01 T10341107  RH  057%=      5-min Rain = 0
KFL1 232103Z 29019KT M04/M11 A3003 RMK A01 T10351108  RH  057%=      5-min Rain = 0
KFL1 232104Z 30019G24KT M04/M11 A3003 RMK A01 T10361108  RH  058%=      5-min Rain = 0
KFL1 232105Z 29019G24KT M04/M11 A3003 RMK A01 T10361110  RH  057%=      5-min Rain = 0
KFL1 232106Z 31015G20KT M04/M11 A3003 RMK A01 T10351111  RH  056%=      5-min Rain = 0
KFL1 232107Z 29017G22KT M03/M11 A3003 RMK A01 T10331108  RH  056%=      5-min Rain = 0
KFL1 232108Z 30013KT M03/M11 A3003 RMK A01 T10331109  RH  056%=      5-min Rain = 0
KFL1 232109Z 30013G20KT M03/M11 A3003 RMK A01 T10331106  RH  057%=      5-min Rain = 0
KFL1 232110Z 30017G22KT M03/M11 A3002 RMK A01 T10331105  RH  057%=      5-min Rain = 0
KFL1 232111Z 31017G22KT M03/M11 A3002 RMK A01 T10321108  RH  056%=      5-min Rain = 0
KFL1 232112Z 30016KT M03/M11 A3002 RMK A01 T10321107  RH  056%=      5-min Rain = 0
KFL1 232113Z 30018KT M03/M11 A3002 RMK A01 T10321108  RH  056%=      5-min Rain = 0
KFL1 232114Z 30017G22KT M03/M11 A3002 RMK A01 T10321106  RH  056%=      5-min Rain = 0.01
KFL1 232115Z 31018KT M04/M11 A3002 RMK A01 T10351107  RH  057%=      5-min Rain = 0
KFL1 232116Z 30015KT M04/M11 A3002 RMK A01 T10351106  RH  058%=      5-min Rain = 0
KFL1 232117Z 30015KT M04/M11 A3002 RMK A01 T10361109  RH  057%=      5-min Rain = 0
KFL1 232118Z 30019KT M04/M11 A3002 RMK A01 T10361109  RH  057%=      5-min Rain = 0
KFL1 232119Z 29016KT M04/M11 A3002 RMK A01 T10361108  RH  058%=      5-min Rain = 0
KFL1 232120Z 30017KT M04/M11 A3002 RMK A01 T10351108  RH  057%=      5-min Rain = 0
KFL1 232121Z 30018KT M04/M11 A3002 RMK A01 T10351107  RH  058%=      5-min Rain = 0
KFL1 232122Z 30016KT M03/M11 A3003 RMK A01 T10341106  RH  057%=      5-min Rain = 0
KFL1 232123Z 31018KT M04/M11 A3003 RMK A01 T10361109  RH  057%=      5-min Rain = 0
KFL1 232124Z 30019G24KT M04/M11 A3003 RMK A01 T10361109  RH  057%=      5-min Rain = 0
KFL1 232125Z 30019KT M04/M11 A3003 RMK A01 T10351108  RH  057%=      5-min Rain = 0
KFL1 232126Z 30018G23KT M04/M11 A3003 RMK A01 T10371109  RH  057%=      5-min Rain = 0
KFL1 232127Z 30019KT M04/M11 A3003 RMK A01 T10381110  RH  057%=      5-min Rain = 0
KFL1 232128Z 30017KT M04/M11 A3003 RMK A01 T10381111  RH  057%=      5-min Rain = 0
KFL1 232129Z 30019G24KT M04/M11 A3003 RMK A01 T10371109  RH  057%=      5-min Rain = 0
KFL1 232130Z 30020KT M04/M11 A3003 RMK A01 T10371109  RH  057%=      5-min Rain = 0
KFL1 232131Z 30020G26KT M04/M11 A3003 RMK A01 T10361109  RH  057%=      5-min Rain = 0
KFL1 232132Z 31017KT M04/M11 A3003 RMK A01 T10381111  RH  057%=      5-min Rain = 0
KFL1 232133Z 31017KT M04/M11 A3003 RMK A01 T10381110  RH  058%=      5-min Rain = 0
KFL1 232134Z 30017KT M04/M11 A3003 RMK A01 T10391109  RH  058%=      5-min Rain = 0
KFL1 232135Z 30017KT M04/M11 A3003 RMK A01 T10381108  RH  058%=      5-min Rain = 0
KFL1 232136Z 31020KT M04/M11 A3003 RMK A01 T10371108  RH  058%=      5-min Rain = 0
KFL1 232137Z 31020KT M04/M11 A3003 RMK A01 T10381110  RH  057%=      5-min Rain = 0
KFL1 232138Z 30017KT M04/M11 A3003 RMK A01 T10371109  RH  057%=      5-min Rain = 0
KFL1 232139Z 31017G22KT M04/M11 A3003 RMK A01 T10371111  RH  057%=      5-min Rain = 0
KFL1 232140Z 30017KT M04/M11 A3003 RMK A01 T10371110  RH  057%=      5-min Rain = 0
KFL1 232141Z 30017KT M04/M11 A3003 RMK A01 T10371108  RH  058%=      5-min Rain = 0
KFL1 232142Z 30014KT M04/M11 A3003 RMK A01 T10371107  RH  058%=      5-min Rain = 0
KFL1 232143Z 30016G22KT M04/M11 A3003 RMK A01 T10371109  RH  057%=      5-min Rain = 0
KFL1 232144Z 31017KT M04/M11 A3004 RMK A01 T10381113  RH  056%=      5-min Rain = 0
KFL1 232145Z 30016KT M04/M11 A3004 RMK A01 T10371112  RH  056%=      5-min Rain = 0
KFL1 232146Z 30019G24KT M04/M11 A3004 RMK A01 T10361111  RH  056%=      5-min Rain = 0
KFL1 232147Z 30020KT M04/M12 A3004 RMK A01 T10401115  RH  056%=      5-min Rain = 0
KFL1 232148Z 30016KT M04/M11 A3004 RMK A01 T10391114  RH  056%=      5-min Rain = 0
KFL1 232149Z 30018G23KT M04/M11 A3004 RMK A01 T10381112  RH  057%=      5-min Rain = 0
KFL1 232150Z 30017KT M04/M11 A3004 RMK A01 T10371113  RH  056%=      5-min Rain = 0
KFL1 232151Z 30016KT M04/M12 A3004 RMK A01 T10371115  RH  055%=      5-min Rain = 0
KFL1 232152Z 29018KT M04/M12 A3004 RMK A01 T10381115  RH  055%=      5-min Rain = 0
KFL1 232153Z 30018G24KT M04/M11 A3004 RMK A01 T10381114  RH  055%=      5-min Rain = 0
KFL1 232154Z 30023KT M04/M12 A3004 RMK A01 T10391115  RH  055%=      5-min Rain = 0.01
KFL1 232155Z 30018KT M04/M12 A3004 RMK A01 T10401117  RH  055%=      5-min Rain = 0
KFL1 232156Z 30016KT M04/M11 A3004 RMK A01 T10391114  RH  056%=      5-min Rain = 0
KFL1 232157Z 29018G23KT M04/M11 A3004 RMK A01 T10381114  RH  056%=      5-min Rain = 0
KFL1 232158Z 30018KT M04/M12 A3004 RMK A01 T10391116  RH  055%=      5-min Rain = 0
KFL1 232159Z 30016G22KT M04/M12 A3005 RMK A01 T10401118  RH  055%=      5-min Rain = 0
KFL1 232200Z 30015KT M04/M12 A3005 RMK A01 T10401117  RH  055%=      5-min Rain = 0
KFL1 232201Z 30015KT M04/M12 A3005 RMK A01 T10401118  RH  055%=      5-min Rain = 0
KFL1 232202Z 30015KT M04/M12 A3005 RMK A01 T10391117  RH  055%=      5-min Rain = 0
KFL1 232203Z 29015KT M04/M12 A3005 RMK A01 T10381116  RH  055%=      5-min Rain = 0
KFL1 232204Z 30017G22KT M04/M12 A3005 RMK A01 T10381116  RH  055%=      5-min Rain = 0
KFL1 232205Z 30015KT M04/M12 A3005 RMK A01 T10401120  RH  054%=      5-min Rain = 0
KFL1 232206Z 30016KT M04/M12 A3005 RMK A01 T10391120  RH  053%=      5-min Rain = 0
KFL1 232207Z 30017KT M04/M12 A3005 RMK A01 T10401119  RH  054%=      5-min Rain = 0
KFL1 232208Z 30015KT M04/M12 A3005 RMK A01 T10391118  RH  054%=      5-min Rain = 0
KFL1 232209Z 31015KT M04/M12 A3005 RMK A01 T10391118  RH  055%=      5-min Rain = 0
KFL1 232210Z 30015KT M04/M12 A3005 RMK A01 T10391119  RH  054%=      5-min Rain = 0
KFL1 232211Z 31015G20KT M04/M12 A3005 RMK A01 T10371120  RH  053%=      5-min Rain = 0
KFL1 232212Z 30015KT M04/M12 A3005 RMK A01 T10381121  RH  052%=      5-min Rain = 0
KFL1 232213Z 31014KT M04/M12 A3005 RMK A01 T10371121  RH  052%=      5-min Rain = 0
KFL1 232214Z 30016KT M04/M12 A3005 RMK A01 T10391122  RH  052%=      5-min Rain = 0
KFL1 232215Z 30017KT M04/M12 A3005 RMK A01 T10371120  RH  053%=      5-min Rain = 0
KFL1 232216Z 30016G21KT M04/M12 A3005 RMK A01 T10381122  RH  052%=      5-min Rain = 0
KFL1 232217Z 29017KT M04/M12 A3005 RMK A01 T10381120  RH  053%=      5-min Rain = 0
KFL1 232218Z 29017KT M04/M12 A3005 RMK A01 T10411121  RH  054%=      5-min Rain = 0
KFL1 232219Z 30017KT M04/M12 A3005 RMK A01 T10411120  RH  054%=      5-min Rain = 0
KFL1 232220Z 30016G21KT M04/M12 A3005 RMK A01 T10431120  RH  055%=      5-min Rain = 0
KFL1 232221Z 30016G21KT M04/M12 A3006 RMK A01 T10411120  RH  054%=      5-min Rain = 0
KFL1 232222Z 30016G21KT M04/M12 A3006 RMK A01 T10401120  RH  054%=      5-min Rain = 0
KFL1 232223Z 30013KT M04/M12 A3006 RMK A01 T10391121  RH  053%=      5-min Rain = 0
KFL1 232224Z 31017KT M04/M12 A3006 RMK A01 T10411120  RH  054%=      5-min Rain = 0
KFL1 232225Z 30016KT M04/M12 A3006 RMK A01 T10401119  RH  054%=      5-min Rain = 0
KFL1 232226Z 31014KT M04/M12 A3006 RMK A01 T10411122  RH  053%=      5-min Rain = 0
KFL1 232227Z 30016G22KT M04/M12 A3006 RMK A01 T10401122  RH  053%=      5-min Rain = 0
KFL1 232228Z 30017KT M04/M12 A3006 RMK A01 T10401123  RH  052%=      5-min Rain = 0
KFL1 232229Z 30017KT M04/M12 A3006 RMK A01 T10401123  RH  053%=      5-min Rain = 0
KFL1 232230Z 30018KT M04/M12 A3006 RMK A01 T10391122  RH  053%=      5-min Rain = 0
KFL1 232231Z 30018KT M04/M13 A3006 RMK A01 T10421125  RH  052%=      5-min Rain = 0
KFL1 232232Z 30018G23KT M04/M12 A3006 RMK A01 T10421123  RH  054%=      5-min Rain = 0
KFL1 232233Z 30014KT M04/M13 A3006 RMK A01 T10431125  RH  053%=      5-min Rain = 0
KFL1 232234Z 30018KT M04/M12 A3006 RMK A01 T10421124  RH  053%=      5-min Rain = 0
KFL1 232235Z 30017G22KT M04/M12 A3006 RMK A01 T10411122  RH  053%=      5-min Rain = 0
KFL1 232236Z 30015KT M04/M12 A3006 RMK A01 T10411119  RH  054%=      5-min Rain = 0
KFL1 232237Z 30015KT M04/M12 A3006 RMK A01 T10421121  RH  054%=      5-min Rain = 0
KFL1 232238Z 30014KT M04/M12 A3006 RMK A01 T10411121  RH  054%=      5-min Rain = 0
KFL1 232239Z 30016KT M04/M12 A3006 RMK A01 T10431122  RH  054%=      5-min Rain = 0
KFL1 232240Z 30018KT M04/M12 A3006 RMK A01 T10431122  RH  054%=      5-min Rain = 0
KFL1 232241Z 30017KT M04/M12 A3006 RMK A01 T10421124  RH  053%=      5-min Rain = 0
KFL1 232242Z 30014KT M04/M12 A3006 RMK A01 T10431124  RH  053%=      5-min Rain = 0
KFL1 232243Z 30016KT M04/M12 A3006 RMK A01 T10421121  RH  054%=      5-min Rain = 0
KFL1 232244Z 30018KT M04/M12 A3006 RMK A01 T10441124  RH  054%=      5-min Rain = 0
KFL1 232245Z 30015KT M04/M12 A3006 RMK A01 T10431124  RH  053%=      5-min Rain = 0
KFL1 232246Z 30018KT M04/M13 A3006 RMK A01 T10441126  RH  053%=      5-min Rain = 0
KFL1 232247Z 30017KT M04/M12 A3006 RMK A01 T10421124  RH  053%=      5-min Rain = 0
KFL1 232248Z 30017KT M04/M13 A3006 RMK A01 T10411125  RH  052%=      5-min Rain = 0
KFL1 232249Z 30015KT M04/M13 A3007 RMK A01 T10401125  RH  052%=      5-min Rain = 0
KFL1 232250Z 30016KT M04/M13 A3007 RMK A01 T10411126  RH  052%=      5-min Rain = 0
KFL1 232251Z 30016KT M04/M13 A3007 RMK A01 T10411126  RH  052%=      5-min Rain = 0
KFL1 232252Z 30014KT M04/M13 A3007 RMK A01 T10411127  RH  051%=      5-min Rain = 0
KFL1 232253Z 30014KT M04/M13 A3007 RMK A01 T10431128  RH  051%=      5-min Rain = 0
KFL1 232254Z 30014KT M04/M13 A3007 RMK A01 T10411125  RH  052%=      5-min Rain = 0
KFL1 232255Z 30014KT M04/M13 A3007 RMK A01 T10411126  RH  052%=      5-min Rain = 0
KFL1 232256Z 29015KT M04/M13 A3007 RMK A01 T10411125  RH  052%=      5-min Rain = 0
KFL1 232257Z 30014KT M04/M13 A3007 RMK A01 T10421126  RH  052%=      5-min Rain = 0
KFL1 232258Z 30013KT M04/M13 A3007 RMK A01 T10431127  RH  052%=      5-min Rain = 0
KFL1 232259Z 30015KT M04/M13 A3007 RMK A01 T10421127  RH  052%=      5-min Rain = 0
KFL1 232300Z 30017KT M04/M13 A3007 RMK A01 T10421129  RH  051%=      5-min Rain = 0
KFL1 232301Z 30014KT M04/M13 A3007 RMK A01 T10421128  RH  051%=      5-min Rain = 0
KFL1 232302Z 30014KT M04/M13 A3007 RMK A01 T10411125  RH  052%=      5-min Rain = 0
KFL1 232303Z 30015G20KT M04/M12 A3007 RMK A01 T10421124  RH  053%=      5-min Rain = 0
KFL1 232304Z 30016KT M04/M13 A3007 RMK A01 T10431128  RH  052%=      5-min Rain = 0
KFL1 232305Z 30016KT M04/M13 A3007 RMK A01 T10421128  RH  051%=      5-min Rain = 0
KFL1 232306Z 30014KT M04/M13 A3007 RMK A01 T10431129  RH  051%=      5-min Rain = 0
KFL1 232307Z 30012KT M04/M13 A3007 RMK A01 T10421130  RH  050%=      5-min Rain = 0
KFL1 232308Z 31010KT M04/M13 A3007 RMK A01 T10411129  RH  050%=      5-min Rain = 0
KFL1 232309Z 31011KT M04/M13 A3007 RMK A01 T10401127  RH  051%=      5-min Rain = 0
KFL1 232310Z 30010KT M04/M13 A3007 RMK A01 T10411129  RH  050%=      5-min Rain = 0
KFL1 232311Z 31013KT M04/M13 A3007 RMK A01 T10401129  RH  050%=      5-min Rain = 0
KFL1 232312Z 31011KT M04/M13 A3007 RMK A01 T10391130  RH  049%=      5-min Rain = 0
KFL1 232313Z 31011KT M04/M13 A3007 RMK A01 T10381130  RH  049%=      5-min Rain = 0
KFL1 232314Z 31012KT M04/M13 A3007 RMK A01 T10381130  RH  049%=      5-min Rain = 0
KFL1 232315Z 31010KT M04/M13 A3007 RMK A01 T10371128  RH  049%=      5-min Rain = 0
KFL1 232316Z 31011KT M04/M13 A3007 RMK A01 T10381129  RH  049%=      5-min Rain = 0
KFL1 232317Z 31013KT M04/M13 A3007 RMK A01 T10371129  RH  049%=      5-min Rain = 0
KFL1 232318Z 31014KT M04/M13 A3008 RMK A01 T10381131  RH  049%=      5-min Rain = 0
KFL1 232319Z 30012KT M04/M13 A3008 RMK A01 T10381130  RH  049%=      5-min Rain = 0
KFL1 232320Z 31013KT M04/M13 A3008 RMK A01 T10381129  RH  049%=      5-min Rain = 0
KFL1 232321Z 31012KT M04/M13 A3008 RMK A01 T10371127  RH  050%=      5-min Rain = 0
KFL1 232322Z 30009KT M04/M13 A3008 RMK A01 T10381127  RH  050%=      5-min Rain = 0
KFL1 232323Z 29009KT M04/M13 A3008 RMK A01 T10391126  RH  051%=      5-min Rain = 0
KFL1 232324Z 30010KT M04/M13 A3008 RMK A01 T10391126  RH  051%=      5-min Rain = 0
KFL1 232325Z 29012KT M04/M13 A3008 RMK A01 T10401127  RH  051%=      5-min Rain = 0
KFL1 232326Z 30012KT M04/M13 A3008 RMK A01 T10401126  RH  051%=      5-min Rain = 0
KFL1 232327Z 29012KT M04/M13 A3008 RMK A01 T10401127  RH  051%=      5-min Rain = 0
KFL1 232328Z 30012KT M04/M13 A3008 RMK A01 T10401126  RH  051%=      5-min Rain = 0
KFL1 232329Z 29010KT M04/M13 A3008 RMK A01 T10401125  RH  052%=      5-min Rain = 0
KFL1 232330Z 29010KT M04/M13 A3008 RMK A01 T10411126  RH  052%=      5-min Rain = 0
KFL1 232331Z 29011KT M04/M13 A3008 RMK A01 T10411125  RH  052%=      5-min Rain = 0
KFL1 232332Z 30011KT M04/M13 A3008 RMK A01 T10421126  RH  052%=      5-min Rain = 0
KFL1 232333Z 29009G14KT M04/M13 A3008 RMK A01 T10421126  RH  052%=      5-min Rain = 0
KFL1 232334Z 29009G14KT M04/M12 A3008 RMK A01 T10411124  RH  052%=      5-min Rain = 0
KFL1 232335Z 29010KT M04/M12 A3008 RMK A01 T10401124  RH  052%=      5-min Rain = 0
KFL1 232336Z 29010KT M04/M13 A3008 RMK A01 T10411125  RH  052%=      5-min Rain = 0
KFL1 232337Z 30013KT M04/M13 A3008 RMK A01 T10401126  RH  051%=      5-min Rain = 0
KFL1 232338Z 30011KT M04/M13 A3009 RMK A01 T10421128  RH  051%=      5-min Rain = 0
KFL1 232339Z 30011KT M04/M13 A3009 RMK A01 T10401126  RH  051%=      5-min Rain = 0
KFL1 232340Z 30010KT M04/M13 A3009 RMK A01 T10411126  RH  051%=      5-min Rain = 0
KFL1 232341Z 29009KT M04/M13 A3009 RMK A01 T10401125  RH  052%=      5-min Rain = 0
KFL1 232342Z 29007KT M04/M13 A3009 RMK A01 T10411127  RH  051%=      5-min Rain = 0
KFL1 232343Z 29010KT M04/M13 A3009 RMK A01 T10421127  RH  051%=      5-min Rain = 0
KFL1 232344Z 28009KT M04/M13 A3009 RMK A01 T10421127  RH  051%=      5-min Rain = 0
KFL1 232345Z 28008KT M04/M13 A3009 RMK A01 T10421128  RH  051%=      5-min Rain = 0
KFL1 232346Z 28008KT M04/M13 A3009 RMK A01 T10421128  RH  051%=      5-min Rain = 0
KFL1 232347Z 28007KT M04/M13 A301 RMK A01 T10411127  RH  051%=      5-min Rain = 0
KFL1 232348Z 29009KT M04/M13 A301 RMK A01 T10411126  RH  052%=      5-min Rain = 0
KFL1 232349Z 28009KT M04/M13 A301 RMK A01 T10421128  RH  051%=      5-min Rain = 0
KFL1 232350Z 27008KT M04/M13 A301 RMK A01 T10431128  RH  052%=      5-min Rain = 0
KFL1 232351Z 27010KT M04/M13 A301 RMK A01 T10431128  RH  052%=      5-min Rain = 0
KFL1 232352Z 28008KT M04/M13 A301 RMK A01 T10421130  RH  051%=      5-min Rain = 0
KFL1 232353Z 26007KT M04/M13 A301 RMK A01 T10431131  RH  051%=      5-min Rain = 0
KFL1 232354Z 27009KT M04/M13 A301 RMK A01 T10431128  RH  052%=      5-min Rain = 0
KFL1 232355Z 26008KT M04/M13 A301 RMK A01 T10431128  RH  051%=      5-min Rain = 0
KFL1 232356Z 27009KT M04/M13 A301 RMK A01 T10421128  RH  051%=      5-min Rain = 0
KFL1 232357Z 27009KT M04/M13 A301 RMK A01 T10431130  RH  051%=      5-min Rain = 0
KFL1 232358Z 26009KT M04/M13 A301 RMK A01 T10421129  RH  051%=      5-min Rain = 0
KFL1 232359Z 25007KT M04/M13 A301 RMK A01 T10441131  RH  051%=      5-min Rain = 0
KFL1 240000Z 22004KT M04/M13 A301 RMK A01 T10421130  RH  050%=      5-min Rain = 0
KFL1 240001Z 23004KT M04/M13 A301 RMK A01 T10431133  RH  050%=      5-min Rain = 0
KFL1 240002Z 23006KT M05/M13 A301 RMK A01 T10451134  RH  050%=      5-min Rain = 0
KFL1 240003Z 24007KT M05/M14 A301 RMK A01 T10471137  RH  049%=      5-min Rain = 0
KFL1 240004Z 24008KT M05/M14 A301 RMK A01 T10521142  RH  049%=      5-min Rain = 0
KFL1 240005Z 24007KT M06/M14 A301 RMK A01 T10561144  RH  050%=      5-min Rain = 0
KFL1 240006Z 23008KT M06/M14 A301 RMK A01 T10601144  RH  051%=      5-min Rain = 0
KFL1 240007Z 22008KT M06/M14 A301 RMK A01 T10601142  RH  053%=      5-min Rain = 0
KFL1 240008Z 23007KT M06/M14 A301 RMK A01 T10581139  RH  053%=      5-min Rain = 0
KFL1 240009Z 23006KT M06/M14 A301 RMK A01 T10591140  RH  053%=      5-min Rain = 0
KFL1 240010Z 23006KT M06/M14 A3011 RMK A01 T10601140  RH  053%=      5-min Rain = 0
KFL1 240011Z 23007KT M06/M14 A3011 RMK A01 T10611141  RH  053%=      5-min Rain = 0
KFL1 240012Z 22007KT M06/M14 A3011 RMK A01 T10601140  RH  053%=      5-min Rain = 0
KFL1 240013Z 22007KT M06/M14 A3011 RMK A01 T10601139  RH  053%=      5-min Rain = 0
KFL1 240014Z 23007KT M06/M14 A3011 RMK A01 T10601138  RH  054%=      5-min Rain = 0
KFL1 240015Z 23007KT M06/M14 A3011 RMK A01 T10621141  RH  053%=      5-min Rain = 0
KFL1 240016Z 23004KT M06/M14 A3011 RMK A01 T10621141  RH  053%=      5-min Rain = 0
KFL1 240017Z 24005KT M07/M14 A3011 RMK A01 T10651143  RH  054%=      5-min Rain = 0
KFL1 240018Z 25006KT M06/M14 A3011 RMK A01 T10641141  RH  054%=      5-min Rain = 0
KFL1 240019Z 26007KT M06/M14 A3011 RMK A01 T10621136  RH  056%=      5-min Rain = 0
KFL1 240020Z 27006KT M06/M13 A3011 RMK A01 T10611134  RH  056%=      5-min Rain = 0
KFL1 240021Z 28006KT M06/M14 A3011 RMK A01 T10631137  RH  056%=      5-min Rain = 0
KFL1 240022Z 26007KT M06/M14 A3011 RMK A01 T10621135  RH  056%=      5-min Rain = 0
KFL1 240023Z 27007KT M06/M14 A3011 RMK A01 T10611135  RH  056%=      5-min Rain = 0
KFL1 240024Z 28008KT M06/M13 A3012 RMK A01 T10581133  RH  055%=      5-min Rain = 0
KFL1 240025Z 28008KT M06/M13 A3012 RMK A01 T10591134  RH  055%=      5-min Rain = 0
KFL1 240026Z 27007KT M06/M14 A3012 RMK A01 T10601135  RH  055%=      5-min Rain = 0
KFL1 240027Z 27006KT M06/M14 A3012 RMK A01 T10601135  RH  055%=      5-min Rain = 0
KFL1 240028Z 25007KT M06/M14 A3012 RMK A01 T10601136  RH  055%=      5-min Rain = 0
KFL1 240029Z 23005KT M06/M14 A3012 RMK A01 T10621138  RH  055%=      5-min Rain = 0
KFL1 240030Z 23004KT M06/M14 A3012 RMK A01 T10611138  RH  055%=      5-min Rain = 0
KFL1 240031Z 22005KT M06/M14 A3012 RMK A01 T10641141  RH  054%=      5-min Rain = 0
KFL1 240032Z 24005KT M07/M15 A3012 RMK A01 T10681146  RH  054%=      5-min Rain = 0
KFL1 240033Z 23003KT M07/M15 A3012 RMK A01 T10731149  RH  055%=      5-min Rain = 0
KFL1 240034Z 24004KT M08/M15 A3012 RMK A01 T10751149  RH  056%=      5-min Rain = 0
KFL1 240035Z 22002KT M08/M15 A3012 RMK A01 T10791152  RH  056%=      5-min Rain = 0
KFL1 240036Z 21002KT M08/M15 A3012 RMK A01 T10801149  RH  058%=      5-min Rain = 0
KFL1 240037Z 21002KT M08/M15 A3012 RMK A01 T10791146  RH  059%=      5-min Rain = 0
KFL1 240038Z 19001KT M08/M14 A3012 RMK A01 T10781144  RH  059%=      5-min Rain = 0
KFL1 240039Z 20002KT M08/M15 A3012 RMK A01 T10791145  RH  059%=      5-min Rain = 0
KFL1 240040Z 18002KT M08/M15 A3012 RMK A01 T10791145  RH  059%=      5-min Rain = 0
KFL1 240041Z 20002KT M08/M15 A3012 RMK A01 T10791146  RH  059%=      5-min Rain = 0
KFL1 240042Z 19002KT M08/M15 A3012 RMK A01 T10791145  RH  059%=      5-min Rain = 0
KFL1 240043Z 19002KT M08/M14 A3012 RMK A01 T10781144  RH  059%=      5-min Rain = 0
KFL1 240044Z 18002KT M08/M14 A3012 RMK A01 T10781143  RH  059%=      5-min Rain = 0
KFL1 240045Z 17002KT M08/M14 A3012 RMK A01 T10791144  RH  059%=      5-min Rain = 0
KFL1 240046Z 19003KT M08/M15 A3012 RMK A01 T10791145  RH  059%=      5-min Rain = 0
KFL1 240047Z 19003KT M08/M15 A3012 RMK A01 T10801145  RH  060%=      5-min Rain = 0
KFL1 240048Z 20003KT M08/M14 A3013 RMK A01 T10811144  RH  060%=      5-min Rain = 0
KFL1 240049Z 19003KT M08/M15 A3013 RMK A01 T10821145  RH  060%=      5-min Rain = 0
KFL1 240050Z 19004KT M08/M14 A3013 RMK A01 T10801143  RH  061%=      5-min Rain = 0
KFL1 240051Z 20005KT M08/M14 A3013 RMK A01 T10811143  RH  061%=      5-min Rain = 0
KFL1 240052Z 20004KT M08/M14 A3013 RMK A01 T10821144  RH  061%=      5-min Rain = 0
KFL1 240053Z 20004KT M08/M14 A3013 RMK A01 T10831144  RH  061%=      5-min Rain = 0
KFL1 240054Z 20005KT M09/M15 A3013 RMK A01 T10851145  RH  062%=      5-min Rain = 0
KFL1 240055Z 21004KT M09/M15 A3013 RMK A01 T10861145  RH  062%=      5-min Rain = 0
KFL1 240056Z 21004KT M09/M14 A3013 RMK A01 T10851143  RH  063%=      5-min Rain = 0
KFL1 240057Z 22004KT M09/M14 A3013 RMK A01 T10851143  RH  063%=      5-min Rain = 0
KFL1 240058Z 22004KT M09/M15 A3013 RMK A01 T10861145  RH  063%=      5-min Rain = 0
KFL1 240059Z 23004KT M09/M15 A3013 RMK A01 T10851145  RH  062%=      5-min Rain = 0
KFL1 240100Z 23004KT M08/M15 A3013 RMK A01 T10841145  RH  061%=      5-min Rain = 0
KFL1 240101Z 24004KT M09/M15 A3013 RMK A01 T10851148  RH  061%=      5-min Rain = 0
KFL1 240102Z 23004KT M08/M15 A3013 RMK A01 T10841147  RH  061%=      5-min Rain = 0
KFL1 240103Z 24004KT M09/M15 A3013 RMK A01 T10851149  RH  060%=      5-min Rain = 0
KFL1 240104Z 23003KT M09/M15 A3013 RMK A01 T10891153  RH  060%=      5-min Rain = 0
KFL1 240105Z 24004KT M09/M16 A3013 RMK A01 T10921155  RH  060%=      5-min Rain = 0
KFL1 240106Z 24003KT M10/M16 A3013 RMK A01 T10951158  RH  060%=      5-min Rain = 0
KFL1 240107Z 25003KT M10/M16 A3013 RMK A01 T10971158  RH  061%=      5-min Rain = 0
KFL1 240108Z 25003KT M10/M16 A3013 RMK A01 T10981158  RH  061%=      5-min Rain = 0
KFL1 240109Z 25003KT M10/M16 A3013 RMK A01 T11001160  RH  062%=      5-min Rain = 0
KFL1 240110Z 24004KT M10/M16 A3013 RMK A01 T11041163  RH  062%=      5-min Rain = 0
KFL1 240111Z 24005KT M11/M16 A3013 RMK A01 T11051162  RH  063%=      5-min Rain = 0
KFL1 240112Z 25004KT M10/M16 A3013 RMK A01 T11041159  RH  064%=      5-min Rain = 0
KFL1 240113Z 25005KT M10/M16 A3013 RMK A01 T11011156  RH  064%=      5-min Rain = 0
KFL1 240114Z 25006KT M10/M16 A3013 RMK A01 T11001156  RH  064%=      5-min Rain = 0
KFL1 240115Z 25006KT M10/M16 A3013 RMK A01 T11011159  RH  063%=      5-min Rain = 0
KFL1 240116Z 25006KT M10/M16 A3013 RMK A01 T11041162  RH  062%=      5-min Rain = 0
KFL1 240117Z 25007KT M11/M16 A3013 RMK A01 T11051163  RH  063%=      5-min Rain = 0
KFL1 240118Z 24007KT M10/M16 A3013 RMK A01 T11001155  RH  064%=      5-min Rain = 0
KFL1 240119Z 24007KT M10/M16 A3013 RMK A01 T10981155  RH  063%=      5-min Rain = 0
KFL1 240120Z 25007KT M10/M16 A3013 RMK A01 T10981156  RH  062%=      5-min Rain = 0
KFL1 240121Z 24007KT M10/M16 A3013 RMK A01 T10991159  RH  062%=      5-min Rain = 0
KFL1 240122Z 25007KT M10/M16 A3013 RMK A01 T10981157  RH  062%=      5-min Rain = 0
KFL1 240123Z 25007KT M10/M16 A3014 RMK A01 T10971156  RH  062%=      5-min Rain = 0
KFL1 240124Z 25007KT M10/M16 A3014 RMK A01 T10951157  RH  061%=      5-min Rain = 0
KFL1 240125Z 25006KT M10/M16 A3014 RMK A01 T10991162  RH  060%=      5-min Rain = 0
KFL1 240126Z 24006KT M10/M16 A3014 RMK A01 T11001162  RH  060%=      5-min Rain = 0
KFL1 240127Z 27008KT M10/M16 A3014 RMK A01 T11021162  RH  061%=      5-min Rain = 0
KFL1 240128Z 26006KT M10/M17 A3014 RMK A01 T11041166  RH  060%=      5-min Rain = 0
KFL1 240129Z 25007KT M11/M17 A3014 RMK A01 T11091171  RH  060%=      5-min Rain = 0
KFL1 240130Z 25007KT M11/M17 A3014 RMK A01 T11071165  RH  063%=      5-min Rain = 0
KFL1 240131Z 27005KT M10/M15 A3014 RMK A01 T10991154  RH  064%=      5-min Rain = 0
KFL1 240132Z 27005KT M10/M15 A3014 RMK A01 T10961154  RH  063%=      5-min Rain = 0
KFL1 240133Z 26006KT M10/M16 A3014 RMK A01 T11001162  RH  061%=      5-min Rain = 0
KFL1 240134Z 27004KT M10/M16 A3014 RMK A01 T11011160  RH  062%=      5-min Rain = 0
KFL1 240135Z 27003KT M10/M16 A3014 RMK A01 T11011161  RH  062%=      5-min Rain = 0
KFL1 240136Z 27006KT M10/M16 A3014 RMK A01 T11031163  RH  061%=      5-min Rain = 0
KFL1 240137Z 26006KT M10/M16 A3014 RMK A01 T11031161  RH  062%=      5-min Rain = 0
KFL1 240138Z 27007KT M10/M16 A3014 RMK A01 T11001157  RH  063%=      5-min Rain = 0
KFL1 240139Z 28005KT M10/M15 A3015 RMK A01 T10961153  RH  063%=      5-min Rain = 0
KFL1 240140Z 26005KT M10/M16 A3015 RMK A01 T10961157  RH  061%=      5-min Rain = 0
KFL1 240141Z 28004KT M10/M16 A3015 RMK A01 T10991162  RH  060%=      5-min Rain = 0
KFL1 240142Z 28004KT M10/M17 A3015 RMK A01 T11021165  RH  060%=      5-min Rain = 0
KFL1 240143Z 28004KT M10/M17 A3015 RMK A01 T11041165  RH  061%=      5-min Rain = 0
KFL1 240144Z 29004KT M11/M17 A3015 RMK A01 T11081169  RH  061%=      5-min Rain = 0
KFL1 240145Z 30005KT M11/M17 A3015 RMK A01 T11081166  RH  062%=      5-min Rain = 0
KFL1 240146Z 31004KT M11/M17 A3015 RMK A01 T11111168  RH  062%=      5-min Rain = 0
KFL1 240147Z 30004KT M11/M17 A3015 RMK A01 T11121169  RH  063%=      5-min Rain = 0
KFL1 240148Z 29004KT M11/M17 A3015 RMK A01 T11121165  RH  065%=      5-min Rain = 0
KFL1 240149Z 29004KT M11/M16 A3015 RMK A01 T11101162  RH  066%=      5-min Rain = 0
KFL1 240150Z 30004KT M11/M16 A3015 RMK A01 T11091161  RH  065%=      5-min Rain = 0
KFL1 240151Z 30005KT M11/M17 A3015 RMK A01 T11131169  RH  063%=      5-min Rain = 0
KFL1 240152Z 30005KT M12/M17 A3015 RMK A01 T11151169  RH  065%=      5-min Rain = 0
KFL1 240153Z 29006KT M11/M16 A3015 RMK A01 T11101159  RH  067%=      5-min Rain = 0
KFL1 240154Z 28006KT M10/M15 A3015 RMK A01 T11031153  RH  067%=      5-min Rain = 0
KFL1 240155Z 28006KT M10/M15 A3015 RMK A01 T11021154  RH  066%=      5-min Rain = 0
KFL1 240156Z 28006KT M10/M16 A3015 RMK A01 T11011155  RH  065%=      5-min Rain = 0
KFL1 240157Z 28007KT M10/M16 A3015 RMK A01 T11031159  RH  063%=      5-min Rain = 0
KFL1 240158Z 28007KT M11/M16 A3015 RMK A01 T11061164  RH  062%=      5-min Rain = 0
KFL1 240159Z 28007KT M11/M17 A3015 RMK A01 T11121171  RH  062%=      5-min Rain = 0
KFL1 240200Z 28007KT M12/M17 A3015 RMK A01 T11171174  RH  063%=      5-min Rain = 0
KFL1 240201Z 28007KT M12/M17 A3015 RMK A01 T11151166  RH  066%=      5-min Rain = 0
KFL1 240202Z 28007KT M11/M16 A3015 RMK A01 T11111162  RH  066%=      5-min Rain = 0
KFL1 240203Z 28008KT M12/M17 A3015 RMK A01 T11171170  RH  065%=      5-min Rain = 0
KFL1 240204Z 28008KT M11/M16 A3015 RMK A01 T11111160  RH  067%=      5-min Rain = 0
KFL1 240205Z 28008KT M11/M16 A3015 RMK A01 T11071156  RH  067%=      5-min Rain = 0
KFL1 240206Z 28007KT M11/M16 A3015 RMK A01 T11051155  RH  067%=      5-min Rain = 0
KFL1 240207Z 28007KT M11/M16 A3015 RMK A01 T11081162  RH  064%=      5-min Rain = 0
KFL1 240208Z 28007KT M11/M17 A3016 RMK A01 T11131167  RH  064%=      5-min Rain = 0
KFL1 240209Z 28008KT M12/M17 A3016 RMK A01 T11171171  RH  064%=      5-min Rain = 0
KFL1 240210Z 28007KT M12/M17 A3016 RMK A01 T11181170  RH  065%=      5-min Rain = 0
KFL1 240211Z 28007KT M12/M16 A3016 RMK A01 T11151163  RH  068%=      5-min Rain = 0
KFL1 240212Z 29007KT M11/M16 A3016 RMK A01 T11131161  RH  067%=      5-min Rain = 0
KFL1 240213Z 28007KT M12/M16 A3016 RMK A01 T11151164  RH  067%=      5-min Rain = 0
KFL1 240214Z 28007KT M11/M16 A3016 RMK A01 T11131161  RH  068%=      5-min Rain = 0
KFL1 240215Z 28007KT M11/M16 A3016 RMK A01 T11141163  RH  067%=      5-min Rain = 0
KFL1 240216Z 28008KT M12/M17 A3016 RMK A01 T11161167  RH  066%=      5-min Rain = 0
KFL1 240217Z 27008KT M12/M17 A3016 RMK A01 T11191171  RH  066%=      5-min Rain = 0
KFL1 240218Z 27007KT M12/M17 A3016 RMK A01 T11181167  RH  067%=      5-min Rain = 0
KFL1 240219Z 27007KT M12/M16 A3016 RMK A01 T11151162  RH  068%=      5-min Rain = 0
KFL1 240220Z 27007KT M12/M17 A3016 RMK A01 T11151165  RH  066%=      5-min Rain = 0
KFL1 240221Z 27006KT M11/M16 A3016 RMK A01 T11131162  RH  067%=      5-min Rain = 0
KFL1 240222Z 27006KT M11/M16 A3016 RMK A01 T11081157  RH  068%=      5-min Rain = 0
KFL1 240223Z 27006KT M11/M16 A3016 RMK A01 T11091159  RH  066%=      5-min Rain = 0
KFL1 240224Z 26007KT M11/M16 A3016 RMK A01 T11091160  RH  066%=      5-min Rain = 0
KFL1 240225Z 27007KT M11/M16 A3017 RMK A01 T11101162  RH  065%=      5-min Rain = 0
KFL1 240226Z 28006KT M11/M16 A3017 RMK A01 T11081161  RH  065%=      5-min Rain = 0
KFL1 240227Z 29005KT M11/M17 A3017 RMK A01 T11091165  RH  063%=      5-min Rain = 0
KFL1 240228Z 30005KT M12/M18 A3017 RMK A01 T11211182  RH  061%=      5-min Rain = 0
KFL1 240229Z 33006KT M13/M20 A3017 RMK A01 T11341195  RH  060%=      5-min Rain = 0
KFL1 240230Z 33007KT M15/M22 A3017 RMK A01 T11541215  RH  060%=      5-min Rain = 0
KFL1 240231Z 31007KT M16/M21 A3017 RMK A01 T11611212  RH  065%=      5-min Rain = 0
KFL1 240232Z 31006KT M15/M19 A3017 RMK A01 T11501187  RH  073%=      5-min Rain = 0
KFL1 240233Z 31007KT M14/M17 A3017 RMK A01 T11391170  RH  078%=      5-min Rain = 0
KFL1 240234Z 31007KT M13/M17 A3017 RMK A01 T11341165  RH  077%=      5-min Rain = 0
KFL1 240235Z 30008KT M13/M17 A3017 RMK A01 T11321165  RH  076%=      5-min Rain = 0
KFL1 240236Z 31007KT M13/M17 A3017 RMK A01 T11311168  RH  074%=      5-min Rain = 0
KFL1 240237Z 32006KT M15/M20 A3017 RMK A01 T11471195  RH  067%=      5-min Rain = 0
KFL1 240238Z 32006KT M17/M22 A3017 RMK A01 T11681221  RH  063%=      5-min Rain = 0
KFL1 240239Z 32007KT M18/M23 A3017 RMK A01 T11811232  RH  064%=      5-min Rain = 0
KFL1 240240Z 31007KT M18/M23 A3017 RMK A01 T11841229  RH  068%=      5-min Rain = 0
KFL1 240241Z 31008KT M18/M22 A3017 RMK A01 T11841222  RH  072%=      5-min Rain = 0
KFL1 240242Z 31007KT M18/M22 A3017 RMK A01 T11831216  RH  075%=      5-min Rain = 0
KFL1 240243Z 33006KT M18/M22 A3017 RMK A01 T11841216  RH  076%=      5-min Rain = 0
KFL1 240244Z 32007KT M18/M21 A3017 RMK A01 T11781206  RH  079%=      5-min Rain = 0
KFL1 240245Z 32006KT M17/M20 A3018 RMK A01 T11731198  RH  081%=      5-min Rain = 0
KFL1 240246Z 36008KT M17/M20 A3018 RMK A01 T11701196  RH  081%=      5-min Rain = 0
KFL1 240247Z 34008KT M17/M20 A3018 RMK A01 T11711198  RH  079%=      5-min Rain = 0
KFL1 240248Z 33008KT M17/M21 A3018 RMK A01 T11741205  RH  077%=      5-min Rain = 0
KFL1 240249Z 33009KT M18/M22 A3018 RMK A01 T11841218  RH  075%=      5-min Rain = 0
KFL1 240250Z 33009KT M19/M22 A3017 RMK A01 T11891222  RH  075%=      5-min Rain = 0
KFL1 240251Z 33010KT M19/M22 A3017 RMK A01 T11911223  RH  076%=      5-min Rain = 0
KFL1 240252Z 33010KT M19/M22 A3017 RMK A01 T11891217  RH  078%=      5-min Rain = 0
KFL1 240253Z 33009KT M18/M20 A3017 RMK A01 T11761198  RH  083%=      5-min Rain = 0
KFL1 240254Z 34009KT M17/M19 A3018 RMK A01 T11661186  RH  084%=      5-min Rain = 0
KFL1 240255Z 34010KT M17/M20 A3018 RMK A01 T11731198  RH  081%=      5-min Rain = 0
KFL1 240256Z 34011KT M18/M20 A3018 RMK A01 T11771204  RH  079%=      5-min Rain = 0
KFL1 240257Z 33011KT M17/M20 A3018 RMK A01 T11711195  RH  081%=      5-min Rain = 0
KFL1 240258Z 33011KT M16/M18 A3018 RMK A01 T11621184  RH  083%=      5-min Rain = 0
KFL1 240259Z 34010KT M16/M18 A3018 RMK A01 T11551177  RH  084%=      5-min Rain = 0
KFL1 240300Z 33010KT M15/M18 A3018 RMK A01 T11531177  RH  082%=      5-min Rain = 0
KFL1 240301Z 33010KT M15/M18 A3018 RMK A01 T11521179  RH  080%=      5-min Rain = 0
KFL1 240302Z 34009KT M15/M18 A3018 RMK A01 T11541184  RH  078%=      5-min Rain = 0
KFL1 240303Z 34009KT M16/M20 A3018 RMK A01 T11641201  RH  074%=      5-min Rain = 0
KFL1 240304Z 34009KT M18/M21 A3018 RMK A01 T11751213  RH  072%=      5-min Rain = 0
KFL1 240305Z 34009KT M18/M21 A3018 RMK A01 T11761211  RH  074%=      5-min Rain = 0
KFL1 240306Z 34010KT M17/M21 A3018 RMK A01 T11731205  RH  076%=      5-min Rain = 0
KFL1 240307Z 34010KT M18/M21 A3018 RMK A01 T11751208  RH  076%=      5-min Rain = 0
KFL1 240308Z 34010KT M18/M21 A3018 RMK A01 T11781210  RH  076%=      5-min Rain = 0
KFL1 240309Z 34009KT M17/M20 A3018 RMK A01 T11711198  RH  080%=      5-min Rain = 0
KFL1 240310Z 34010KT M16/M18 A3018 RMK A01 T11581180  RH  083%=      5-min Rain = 0
KFL1 240311Z 34010KT M15/M17 A3018 RMK A01 T11481169  RH  084%=      5-min Rain = 0
KFL1 240312Z 35010KT M15/M18 A3018 RMK A01 T11501178  RH  080%=      5-min Rain = 0
KFL1 240313Z 35009KT M16/M20 A3018 RMK A01 T11631198  RH  074%=      5-min Rain = 0
KFL1 240314Z 35009KT M17/M21 A3018 RMK A01 T11701207  RH  073%=      5-min Rain = 0
KFL1 240315Z 34008KT M17/M21 A3018 RMK A01 T11721208  RH  074%=      5-min Rain = 0
KFL1 240316Z 34008KT M17/M21 A3018 RMK A01 T11731207  RH  075%=      5-min Rain = 0
KFL1 240317Z 34008KT M17/M21 A3018 RMK A01 T11741206  RH  076%=      5-min Rain = 0
KFL1 240318Z 35009KT M17/M21 A3018 RMK A01 T11741205  RH  077%=      5-min Rain = 0
KFL1 240319Z 35009KT M17/M20 A3018 RMK A01 T11681195  RH  080%=      5-min Rain = 0
KFL1 240320Z 36008KT M16/M18 A3018 RMK A01 T11591183  RH  082%=      5-min Rain = 0
KFL1 240321Z 00008KT M15/M18 A3018 RMK A01 T11541178  RH  082%=      5-min Rain = 0
KFL1 240322Z 00008KT M15/M17 A3018 RMK A01 T11491172  RH  083%=      5-min Rain = 0
KFL1 240323Z 00008KT M15/M17 A3018 RMK A01 T11481173  RH  081%=      5-min Rain = 0
KFL1 240324Z 00008KT M15/M18 A3018 RMK A01 T11511178  RH  080%=      5-min Rain = 0
KFL1 240325Z 36009KT M16/M18 A3018 RMK A01 T11551184  RH  079%=      5-min Rain = 0
KFL1 240326Z 00009KT M16/M19 A3018 RMK A01 T11591188  RH  079%=      5-min Rain = 0
KFL1 240327Z 00009KT M16/M19 A3018 RMK A01 T11611188  RH  080%=      5-min Rain = 0
KFL1 240328Z 00009KT M16/M19 A3018 RMK A01 T11621188  RH  081%=      5-min Rain = 0
KFL1 240329Z 00009KT M16/M19 A3018 RMK A01 T11641188  RH  082%=      5-min Rain = 0
KFL1 240330Z 01008KT M17/M19 A3018 RMK A01 T11651189  RH  082%=      5-min Rain = 0
KFL1 240331Z 03007KT M16/M19 A3018 RMK A01 T11641186  RH  084%=      5-min Rain = 0
KFL1 240332Z 03006KT M16/M17 A3018 RMK A01 T11561174  RH  086%=      5-min Rain = 0
KFL1 240333Z 03005KT M15/M16 A3018 RMK A01 T11481162  RH  089%=      5-min Rain = 0
KFL1 240334Z 03005KT M15/M17 A3018 RMK A01 T11481165  RH  087%=      5-min Rain = 0
KFL1 240335Z 00006KT M16/M18 A3018 RMK A01 T11561181  RH  082%=      5-min Rain = 0
KFL1 240336Z 02007KT M16/M18 A3018 RMK A01 T11601184  RH  081%=      5-min Rain = 0
KFL1 240337Z 02009KT M16/M18 A3018 RMK A01 T11571178  RH  084%=      5-min Rain = 0
KFL1 240338Z 02009KT M15/M16 A3018 RMK A01 T11481164  RH  088%=      5-min Rain = 0
KFL1 240339Z 02008KT M14/M15 A3018 RMK A01 T11361150  RH  089%=      5-min Rain = 0
KFL1 240340Z 02008KT M13/M15 A3018 RMK A01 T11321147  RH  088%=      5-min Rain = 0
KFL1 240341Z 01009KT M13/M16 A3018 RMK A01 T11341156  RH  084%=      5-min Rain = 0
KFL1 240342Z 02009KT M14/M16 A3018 RMK A01 T11361162  RH  081%=      5-min Rain = 0
KFL1 240343Z 02010KT M14/M17 A3018 RMK A01 T11381165  RH  080%=      5-min Rain = 0
KFL1 240344Z 02008KT M14/M17 A3018 RMK A01 T11421172  RH  078%=      5-min Rain = 0
KFL1 240345Z 02010KT M14/M17 A3019 RMK A01 T11431172  RH  079%=      5-min Rain = 0
KFL1 240346Z 02011KT M13/M16 A3019 RMK A01 T11311157  RH  081%=      5-min Rain = 0
KFL1 240347Z 03010KT M13/M15 A3019 RMK A01 T11261154  RH  080%=      5-min Rain = 0
KFL1 240348Z 03008KT M13/M16 A3019 RMK A01 T11271159  RH  076%=      5-min Rain = 0
KFL1 240349Z 03006KT M13/M16 A3019 RMK A01 T11281162  RH  075%=      5-min Rain = 0
KFL1 240350Z 02008KT M13/M16 A3019 RMK A01 T11261160  RH  076%=      5-min Rain = 0
KFL1 240351Z 02011KT M12/M16 A3019 RMK A01 T11241158  RH  076%=      5-min Rain = 0
KFL1 240352Z 02011KT M13/M16 A3019 RMK A01 T11251164  RH  073%=      5-min Rain = 0
KFL1 240353Z 02011KT M13/M17 A3019 RMK A01 T11321173  RH  071%=      5-min Rain = 0
KFL1 240354Z 04009KT M13/M17 A3019 RMK A01 T11301168  RH  074%=      5-min Rain = 0
KFL1 240355Z 05008KT M12/M15 A3019 RMK A01 T11171148  RH  078%=      5-min Rain = 0
KFL1 240356Z 05006KT M11/M14 A3019 RMK A01 T11091138  RH  079%=      5-min Rain = 0
KFL1 240357Z 03008KT M11/M14 A3019 RMK A01 T11071141  RH  076%=      5-min Rain = 0
KFL1 240358Z 00009KT M11/M15 A3019 RMK A01 T11091150  RH  072%=      5-min Rain = 0
KFL1 240359Z 36010KT M13/M18 A3019 RMK A01 T11281179  RH  066%=      5-min Rain = 0
KFL1 240400Z 01009KT M14/M19 A3019 RMK A01 T11391187  RH  067%=      5-min Rain = 0
KFL1 240401Z 03008KT M14/M19 A3019 RMK A01 T11411185  RH  070%=      5-min Rain = 0
KFL1 240402Z 03007KT M15/M19 A3019 RMK A01 T11451186  RH  071%=      5-min Rain = 0
KFL1 240403Z 02010KT M15/M19 A3019 RMK A01 T11491189  RH  071%=      5-min Rain = 0
KFL1 240404Z 01009KT M16/M20 A3019 RMK A01 T11571198  RH  071%=      5-min Rain = 0
KFL1 240405Z 00007KT M16/M20 A3019 RMK A01 T11601198  RH  073%=      5-min Rain = 0
KFL1 240406Z 02007KT M16/M19 A3019 RMK A01 T11561186  RH  078%=      5-min Rain = 0
KFL1 240407Z 03008KT M15/M18 A3019 RMK A01 T11491175  RH  081%=      5-min Rain = 0
KFL1 240408Z 03006KT M14/M16 A3019 RMK A01 T11411164  RH  082%=      5-min Rain = 0
KFL1 240409Z 03006KT M13/M16 A3019 RMK A01 T11341158  RH  082%=      5-min Rain = 0
KFL1 240410Z 01010KT M13/M16 A302 RMK A01 T11341163  RH  079%=      5-min Rain = 0
KFL1 240411Z 02012KT M14/M17 A302 RMK A01 T11371169  RH  077%=      5-min Rain = 0
KFL1 240412Z 03011KT M14/M17 A302 RMK A01 T11371170  RH  076%=      5-min Rain = 0
KFL1 240413Z 03009KT M14/M17 A302 RMK A01 T11381171  RH  076%=      5-min Rain = 0
KFL1 240414Z 03006KT M14/M17 A302 RMK A01 T11401174  RH  076%=      5-min Rain = 0
KFL1 240415Z 03007KT M14/M17 A302 RMK A01 T11401174  RH  076%=      5-min Rain = 0
KFL1 240416Z 03009KT M14/M18 A302 RMK A01 T11421176  RH  075%=      5-min Rain = 0
KFL1 240417Z 03009KT M14/M16 A302 RMK A01 T11351164  RH  079%=      5-min Rain = 0
KFL1 240418Z 04007KT M13/M15 A302 RMK A01 T11261151  RH  081%=      5-min Rain = 0
KFL1 240419Z 05007KT M12/M14 A302 RMK A01 T11161141  RH  082%=      5-min Rain = 0
KFL1 240420Z 03007KT M11/M13 A302 RMK A01 T11081134  RH  081%=      5-min Rain = 0
KFL1 240421Z 36009KT M11/M14 A302 RMK A01 T11091143  RH  076%=      5-min Rain = 0
KFL1 240422Z 00008KT M13/M18 A302 RMK A01 T11291177  RH  067%=      5-min Rain = 0
KFL1 240423Z 02008KT M14/M19 A302 RMK A01 T11421189  RH  068%=      5-min Rain = 0
KFL1 240424Z 03006KT M14/M18 A302 RMK A01 T11411179  RH  073%=      5-min Rain = 0
KFL1 240425Z 04005KT M13/M17 A302 RMK A01 T11341166  RH  077%=      5-min Rain = 0
KFL1 240426Z 05005KT M13/M16 A302 RMK A01 T11291157  RH  079%=      5-min Rain = 0
KFL1 240427Z 04005KT M12/M15 A302 RMK A01 T11211147  RH  081%=      5-min Rain = 0
KFL1 240428Z 04007KT M12/M14 A302 RMK A01 T11161143  RH  080%=      5-min Rain = 0
KFL1 240429Z 04007KT M11/M14 A302 RMK A01 T11111140  RH  079%=      5-min Rain = 0
KFL1 240430Z 03007KT M11/M14 A3021 RMK A01 T11091140  RH  078%=      5-min Rain = 0
KFL1 240431Z 00008KT M11/M15 A3021 RMK A01 T11101147  RH  074%=      5-min Rain = 0
KFL1 240432Z 00007KT M13/M17 A3021 RMK A01 T11251173  RH  068%=      5-min Rain = 0
KFL1 240433Z 02008KT M14/M18 A3021 RMK A01 T11361181  RH  068%=      5-min Rain = 0
KFL1 240434Z 03007KT M14/M18 A3021 RMK A01 T11381178  RH  072%=      5-min Rain = 0
KFL1 240435Z 04006KT M14/M17 A3021 RMK A01 T11371171  RH  075%=      5-min Rain = 0
KFL1 240436Z 03007KT M13/M17 A3021 RMK A01 T11341166  RH  077%=      5-min Rain = 0
KFL1 240437Z 02007KT M13/M17 A3021 RMK A01 T11341167  RH  076%=      5-min Rain = 0
KFL1 240438Z 02008KT M14/M17 A3021 RMK A01 T11371172  RH  075%=      5-min Rain = 0
KFL1 240439Z 02008KT M14/M18 A3021 RMK A01 T11421176  RH  075%=      5-min Rain = 0
KFL1 240440Z 03008KT M15/M18 A3021 RMK A01 T11481183  RH  074%=      5-min Rain = 0
KFL1 240441Z 03008KT M15/M19 A3021 RMK A01 T11541191  RH  073%=      5-min Rain = 0
KFL1 240442Z 03008KT M16/M19 A3021 RMK A01 T11571191  RH  075%=      5-min Rain = 0
KFL1 240443Z 03008KT M16/M19 A3021 RMK A01 T11561187  RH  077%=      5-min Rain = 0
KFL1 240444Z 03008KT M15/M18 A3021 RMK A01 T11541182  RH  079%=      5-min Rain = 0
KFL1 240445Z 03007KT M15/M18 A3021 RMK A01 T11501176  RH  080%=      5-min Rain = 0
KFL1 240446Z 03007KT M15/M18 A3021 RMK A01 T11491175  RH  081%=      5-min Rain = 0
KFL1 240447Z 03007KT M15/M18 A3021 RMK A01 T11491175  RH  081%=      5-min Rain = 0
KFL1 240448Z 03009KT M15/M18 A3021 RMK A01 T11491176  RH  080%=      5-min Rain = 0
KFL1 240449Z 03009KT M15/M18 A3021 RMK A01 T11521180  RH  079%=      5-min Rain = 0
KFL1 240450Z 03008KT M15/M18 A3021 RMK A01 T11521180  RH  079%=      5-min Rain = 0
KFL1 240451Z 04008KT M15/M18 A3021 RMK A01 T11491175  RH  081%=      5-min Rain = 0
KFL1 240452Z 03007KT M14/M17 A3021 RMK A01 T11441167  RH  083%=      5-min Rain = 0
KFL1 240453Z 03008KT M14/M16 A3021 RMK A01 T11371160  RH  083%=      5-min Rain = 0
KFL1 240454Z 03007KT M14/M16 A3021 RMK A01 T11361162  RH  081%=      5-min Rain = 0
KFL1 240455Z 03006KT M14/M17 A3021 RMK A01 T11401169  RH  079%=      5-min Rain = 0
KFL1 240456Z 03006KT M14/M17 A3021 RMK A01 T11441173  RH  078%=      5-min Rain = 0
KFL1 240457Z 03007KT M15/M18 A3022 RMK A01 T11461176  RH  078%=      5-min Rain = 0
KFL1 240458Z 03007KT M15/M18 A3022 RMK A01 T11481178  RH  078%=      5-min Rain = 0
KFL1 240459Z 03008KT M15/M18 A3022 RMK A01 T11521182  RH  078%=      5-min Rain = 0
KFL1 240500Z 04007KT M15/M18 A3022 RMK A01 T11521180  RH  079%=      5-min Rain = 0
KFL1 240501Z 04006KT M15/M17 A3022 RMK A01 T11451168  RH  083%=      5-min Rain = 0
KFL1 240502Z 06004KT M14/M15 A3022 RMK A01 T11361154  RH  086%=      5-min Rain = 0
KFL1 240503Z 05004KT M13/M15 A3022 RMK A01 T11311146  RH  088%=      5-min Rain = 0
KFL1 240504Z 03005KT M13/M14 A3022 RMK A01 T11271142  RH  089%=      5-min Rain = 0
KFL1 240505Z 02006KT M13/M14 A3022 RMK A01 T11251143  RH  086%=      5-min Rain = 0
KFL1 240506Z 02008KT M13/M16 A3022 RMK A01 T11321158  RH  080%=      5-min Rain = 0
KFL1 240507Z 02008KT M14/M17 A3022 RMK A01 T11381167  RH  078%=      5-min Rain = 0
KFL1 240508Z 04007KT M14/M17 A3022 RMK A01 T11421173  RH  077%=      5-min Rain = 0
KFL1 240509Z 05006KT M14/M16 A3022 RMK A01 T11381163  RH  081%=      5-min Rain = 0
KFL1 240510Z 06006KT M13/M15 A3022 RMK A01 T11301149  RH  086%=      5-min Rain = 0
KFL1 240511Z 07005KT M13/M14 A3022 RMK A01 T11271144  RH  087%=      5-min Rain = 0
KFL1 240512Z 07005KT M13/M15 A3022 RMK A01 T11261147  RH  085%=      5-min Rain = 0
KFL1 240513Z 05005KT M13/M15 A3022 RMK A01 T11291154  RH  082%=      5-min Rain = 0
KFL1 240514Z 03006KT M13/M16 A3022 RMK A01 T11331160  RH  080%=      5-min Rain = 0
KFL1 240515Z 02008KT M13/M16 A3022 RMK A01 T11331160  RH  080%=      5-min Rain = 0
KFL1 240516Z 01007KT M14/M16 A3022 RMK A01 T11351162  RH  080%=      5-min Rain = 0
KFL1 240517Z 03007KT M14/M17 A3022 RMK A01 T11431174  RH  077%=      5-min Rain = 0
KFL1 240518Z 04008KT M14/M17 A3022 RMK A01 T11431170  RH  080%=      5-min Rain = 0
KFL1 240519Z 05007KT M13/M15 A3022 RMK A01 T11341153  RH  085%=      5-min Rain = 0
KFL1 240520Z 06006KT M13/M14 A3022 RMK A01 T11271143  RH  088%=      5-min Rain = 0
KFL1 240521Z 07005KT M12/M14 A3022 RMK A01 T11241140  RH  088%=      5-min Rain = 0
KFL1 240522Z 05005KT M12/M14 A3022 RMK A01 T11231144  RH  084%=      5-min Rain = 0
KFL1 240523Z 04005KT M13/M15 A3022 RMK A01 T11271152  RH  082%=      5-min Rain = 0
KFL1 240524Z 04006KT M13/M16 A3022 RMK A01 T11291155  RH  081%=      5-min Rain = 0
KFL1 240525Z 04007KT M13/M16 A3022 RMK A01 T11291155  RH  081%=      5-min Rain = 0
KFL1 240526Z 04007KT M13/M15 A3022 RMK A01 T11281154  RH  081%=      5-min Rain = 0
KFL1 240527Z 04007KT M13/M15 A3022 RMK A01 T11271151  RH  082%=      5-min Rain = 0
KFL1 240528Z 04008KT M13/M15 A3022 RMK A01 T11251150  RH  082%=      5-min Rain = 0
KFL1 240529Z 04008KT M12/M15 A3022 RMK A01 T11241150  RH  081%=      5-min Rain = 0
KFL1 240530Z 04007KT M12/M15 A3022 RMK A01 T11221149  RH  081%=      5-min Rain = 0
KFL1 240531Z 04007KT M12/M15 A3022 RMK A01 T11211148  RH  080%=      5-min Rain = 0
KFL1 240532Z 04007KT M12/M14 A3022 RMK A01 T11181144  RH  081%=      5-min Rain = 0
KFL1 240533Z 04006KT M12/M14 A3022 RMK A01 T11151142  RH  080%=      5-min Rain = 0
KFL1 240534Z 05006KT M11/M14 A3022 RMK A01 T11141142  RH  080%=      5-min Rain = 0
KFL1 240535Z 04007KT M11/M14 A3022 RMK A01 T11121139  RH  080%=      5-min Rain = 0
KFL1 240536Z 04006KT M11/M14 A3022 RMK A01 T11121140  RH  079%=      5-min Rain = 0
KFL1 240537Z 04007KT M11/M14 A3022 RMK A01 T11121141  RH  079%=      5-min Rain = 0
KFL1 240538Z 04006KT M11/M15 A3022 RMK A01 T11141147  RH  077%=      5-min Rain = 0
KFL1 240539Z 03006KT M13/M17 A3022 RMK A01 T11271166  RH  072%=      5-min Rain = 0
KFL1 240540Z 04007KT M14/M18 A3022 RMK A01 T11381178  RH  072%=      5-min Rain = 0
KFL1 240541Z 04006KT M14/M18 A3022 RMK A01 T11441181  RH  074%=      5-min Rain = 0
KFL1 240542Z 04006KT M15/M18 A3022 RMK A01 T11451176  RH  077%=      5-min Rain = 0
KFL1 240543Z 04006KT M14/M17 A3022 RMK A01 T11411166  RH  082%=      5-min Rain = 0
KFL1 240544Z 04006KT M14/M16 A3022 RMK A01 T11381159  RH  084%=      5-min Rain = 0
KFL1 240545Z 04006KT M14/M16 A3022 RMK A01 T11381161  RH  083%=      5-min Rain = 0
KFL1 240546Z 04005KT M14/M16 A3022 RMK A01 T11381161  RH  083%=      5-min Rain = 0
KFL1 240547Z 04006KT M14/M16 A3022 RMK A01 T11361157  RH  084%=      5-min Rain = 0
KFL1 240548Z 04006KT M13/M15 A3022 RMK A01 T11341154  RH  086%=      5-min Rain = 0
KFL1 240549Z 03006KT M13/M15 A3022 RMK A01 T11311151  RH  086%=      5-min Rain = 0
KFL1 240550Z 04006KT M13/M16 A3022 RMK A01 T11341157  RH  083%=      5-min Rain = 0
KFL1 240551Z 03006KT M14/M17 A3022 RMK A01 T11421170  RH  079%=      5-min Rain = 0
KFL1 240552Z 03006KT M15/M18 A3023 RMK A01 T11491180  RH  078%=      5-min Rain = 0
KFL1 240553Z 03006KT M15/M18 A3023 RMK A01 T11511180  RH  079%=      5-min Rain = 0
KFL1 240554Z 03006KT M16/M18 A3023 RMK A01 T11551184  RH  078%=      5-min Rain = 0
KFL1 240555Z 04005KT M17/M20 A3023 RMK A01 T11671201  RH  075%=      5-min Rain = 0
KFL1 240556Z 05003KT M18/M21 A3023 RMK A01 T11751209  RH  075%=      5-min Rain = 0
KFL1 240557Z 05002KT M18/M21 A3023 RMK A01 T11761206  RH  078%=      5-min Rain = 0
KFL1 240558Z 02005KT M18/M20 A3023 RMK A01 T11751200  RH  081%=      5-min Rain = 0
KFL1 240559Z 02005KT M17/M19 A3023 RMK A01 T11721191  RH  085%=      5-min Rain = 0

Page generated in 0.0713 seconds.